Data for 09/08/2007

Time Sea-Level Adjusted Pressure Absolute Pressure Temperature Relative Humidity Dew Point Precipitation   
(mb) (inHg) (mb) (inHg) (C) (F) (%) (C) (F) (mm) (in)
00:01 1023 30.21 852 25.16 10.6 51.2 67 4.8 40.7 0
00:02 1023 30.21 852 25.16 10.5 50.9 66 4.6 40.2 0
00:03 1023 30.21 852 25.16 10.5 50.8 67 4.6 40.2 0
00:04 1023 30.21 852 25.16 10.5 50.9 66 4.4 40 0
00:05 1023 30.21 852 25.16 10.6 51.1 66 4.5 40.2 0
00:06 1023 30.21 852 25.16 10.6 51.1 66 4.5 40 0
00:07 1023 30.21 852 25.16 10.6 51.2 63 4 39.2 0
00:08 1023 30.21 852 25.16 10.8 51.4 63 4.1 39.4 0
00:09 1023 30.21 852 25.16 10.9 51.6 64 4.3 39.7 0
00:10 1023 30.21 852 25.16 10.9 51.6 65 4.5 40.1 0
00:11 1023 30.21 852 25.16 10.8 51.5 64 4.3 39.7 0
00:12 1023 30.21 852 25.16 10.8 51.5 62 4 39.2 0
00:13 1023 30.21 852 25.16 10.9 51.6 61 3.7 38.7 0
00:14 1023 30.21 852 25.16 11.1 51.9 61 3.9 39.1 0
00:15 1023 30.21 852 25.16 11.2 52.2 60 3.8 38.9 0
00:16 1023 30.21 852 25.16 11.4 52.5 59 3.8 38.8 0
00:17 1023 30.21 853 25.19 11.5 52.7 59 3.8 38.8 0
00:18 1023 30.21 853 25.19 11.5 52.7 60 4 39.2 0
00:19 1023 30.21 853 25.19 11.5 52.6 60 4 39.3 0
00:20 1023 30.21 853 25.19 11.5 52.7 60 4 39.3 0
00:21 1023 30.21 853 25.19 11.5 52.6 60 4.1 39.3 0
00:22 1023 30.21 853 25.19 11.4 52.6 59 3.9 38.9 0
00:23 1023 30.21 853 25.19 11.4 52.6 59 3.7 38.7 0
00:24 1024 30.24 853 25.19 11.5 52.7 59 3.7 38.7 0
00:25 1024 30.24 853 25.19 11.5 52.7 59 3.8 38.8 0
00:26 1024 30.24 853 25.19 11.5 52.7 59 3.8 38.9 0
00:27 1024 30.24 853 25.19 11.5 52.7 59 3.8 38.8 0
00:28 1024 30.24 853 25.19 11.5 52.6 59 3.9 38.9 0
00:29 1024 30.24 853 25.19 11.5 52.7 60 4 39.1 0
00:30 1024 30.24 853 25.19 11.5 52.7 59 3.9 39 0
00:31 1024 30.24 853 25.19 11.5 52.7 60 4.1 39.4 0
00:32 1024 30.24 853 25.19 11.4 52.5 60 3.9 39 0
00:33 1024 30.24 853 25.19 11.4 52.5 59 3.7 38.7 0
00:34 1024 30.24 853 25.19 11.4 52.4 58 3.4 38.2 0
00:35 1024 30.24 853 25.19 11.4 52.6 58 3.5 38.3 0
00:36 1024 30.24 853 25.19 11.5 52.7 59 3.9 39 0
00:37 1024 30.24 853 25.19 11.5 52.7 58 3.5 38.3 0
00:38 1024 30.24 853 25.19 11.5 52.6 57 3.4 38.1 0
00:39 1024 30.24 853 25.19 11.5 52.7 58 3.5 38.2 0
00:40 1024 30.24 853 25.19 11.5 52.6 58 3.4 38.2 0
00:41 1024 30.24 853 25.19 11.4 52.6 59 3.7 38.7 0
00:42 1024 30.24 853 25.19 11.4 52.5 58 3.6 38.4 0
00:43 1024 30.24 853 25.19 11.3 52.4 58 3.4 38.1 0
00:44 1024 30.24 853 25.19 11.3 52.4 58 3.5 38.3 0
00:45 1024 30.24 853 25.19 11.3 52.3 58 3.3 38 0
00:46 1024 30.24 853 25.19 11.3 52.3 57 3 37.5 0
00:47 1024 30.24 853 25.19 11.3 52.4 57 3.2 37.7 0
00:48 1024 30.24 853 25.19 11.4 52.6 58 3.5 38.3 0
00:49 1024 30.24 853 25.19 11.4 52.6 58 3.5 38.4 0
00:50 1024 30.24 853 25.19 11.4 52.5 56 3.1 37.5 0
00:51 1024 30.24 854 25.22 11.5 52.6 55 2.9 37.2 0
00:52 1024 30.24 854 25.22 11.6 52.8 57 3.3 37.9 0
00:53 1024 30.24 854 25.22 11.5 52.8 57 3.3 37.9 0
00:54 1024 30.24 854 25.22 11.5 52.6 58 3.6 38.5 0
00:55 1024 30.24 854 25.22 11.4 52.5 59 3.8 38.8 0
00:56 1024 30.24 854 25.22 11.2 52.1 60 3.7 38.6 0
00:57 1024 30.24 854 25.22 11.1 52 59 3.4 38.1 0
00:58 1024 30.24 854 25.22 11.1 52 58 3.2 37.8 0
00:59 1024 30.24 854 25.22 11.2 52.1 57 3.1 37.6 0
01:00 1024 30.24 854 25.22 11.2 52.2 59 3.6 38.4 0
01:01 1025 30.27 854 25.22 11.2 52.1 59 3.5 38.2 0
01:02 1025 30.27 854 25.22 11.2 52.1 59 3.5 38.3 0
01:03 1025 30.27 854 25.22 11.1 52 59 3.4 38.1 0
01:04 1025 30.27 854 25.22 11.2 52.1 59 3.5 38.3 0
01:05 1025 30.27 854 25.22 11.1 52.1 59 3.5 38.4 0
01:06 1025 30.27 854 25.22 11.1 52.1 57 3 37.4 0
01:07 1025 30.27 854 25.22 11.3 52.3 57 3 37.5 0
01:08 1025 30.27 854 25.22 11.3 52.4 57 3.1 37.6 0
01:09 1025 30.27 854 25.22 11.4 52.5 56 3 37.4 0
01:10 1025 30.27 854 25.22 11.4 52.5 57 3.3 38 0
01:11 1025 30.27 854 25.22 11.3 52.4 59 3.6 38.5 0
01:12 1025 30.27 854 25.22 11.2 52.2 60 3.7 38.7 0
01:13 1025 30.27 854 25.22 11.1 52.1 59 3.5 38.4 0
01:14 1025 30.27 854 25.22 11.1 52 59 3.3 38 0
01:15 1025 30.27 854 25.22 11.1 51.9 57 3 37.3 0
01:16 1025 30.27 854 25.22 11.1 52 58 3.2 37.7 0
01:17 1025 30.27 854 25.22 11.1 52 59 3.4 38.1 0
01:18 1025 30.27 854 25.22 11.1 52 60 3.8 38.8 0
01:19 1025 30.27 854 25.22 11 51.8 59 3.3 38 0
01:20 1025 30.27 854 25.22 11 51.7 59 3.4 38 0
01:21 1025 30.27 854 25.22 11 51.8 58 3 37.4 0
01:22 1025 30.27 854 25.22 11.1 52 58 3.1 37.5 0
01:23 1025 30.27 854 25.22 11.2 52.1 60 3.8 38.9 0
01:24 1025 30.27 854 25.22 11 51.9 59 3.3 38 0
01:25 1025 30.27 854 25.22 11 51.7 60 3.6 38.5 0
01:26 1025 30.27 854 25.22 10.9 51.6 62 4 39.3 0
01:27 1025 30.27 854 25.22 10.7 51.3 64 4.3 39.7 0
01:28 1025 30.27 854 25.22 10.6 51 64 4.1 39.4 0
01:29 1025 30.27 854 25.22 10.4 50.8 65 4.1 39.4 0
01:30 1025 30.27 854 25.22 10.3 50.6 66 4.2 39.6 0
01:31 1025 30.27 854 25.22 10.2 50.4 63 3.6 38.5 0
01:32 1025 30.27 854 25.22 10.1 50.3 64 3.7 38.6 0
01:33 1025 30.27 854 25.22 10.1 50.2 64 3.5 38.4 0
01:34 1025 30.27 854 25.22 10 50.1 64 3.6 38.4 0
01:35 1025 30.27 854 25.22 10 50 65 3.8 38.8 0
01:36 1025 30.27 854 25.22 10 50 66 4 39.3 0
01:37 1025 30.27 854 25.22 9.9 49.8 67 4.1 39.5 0
01:38 1025 30.27 854 25.22 9.9 49.7 67 4 39.2 0
01:39 1025 30.27 854 25.22 9.8 49.6 67 3.9 39.1 0
01:40 1025 30.27 854 25.22 9.8 49.6 66 3.7 38.7 0
01:41 1025 30.27 854 25.22 9.8 49.6 67 4 39.1 0
01:42 1025 30.27 854 25.22 9.7 49.5 64 3.3 37.9 0
01:43 1025 30.27 854 25.22 9.8 49.6 65 3.5 38.3 0
01:44 1025 30.27 855 25.25 9.8 49.6 65 3.5 38.3 0
01:45 1025 30.27 855 25.25 9.7 49.5 66 3.8 38.8 0
01:46 1025 30.27 855 25.25 9.6 49.3 67 3.8 38.9 0
01:47 1025 30.27 855 25.25 9.5 49 68 3.8 38.9 0
01:48 1025 30.27 855 25.25 9.4 48.9 66 3.4 38.2 0
01:49 1025 30.27 855 25.25 9.3 48.8 67 3.5 38.3 0
01:50 1025 30.27 855 25.25 9.3 48.8 68 3.7 38.6 0
01:51 1025 30.27 855 25.25 9.2 48.5 69 3.7 38.7 0
01:52 1025 30.27 855 25.25 9.2 48.5 67 3.5 38.3 0
01:53 1025 30.27 855 25.25 9.1 48.5 67 3.4 38.2 0
01:54 1025 30.27 855 25.25 9.1 48.4 68 3.5 38.2 0
01:55 1025 30.27 855 25.25 9.1 48.4 67 3.3 38 0
01:56 1025 30.27 855 25.25 9.1 48.4 67 3.2 37.8 0
01:57 1025 30.27 855 25.25 9.1 48.4 67 3.3 38 0
01:58 1025 30.27 855 25.25 9.1 48.3 67 3.3 37.9 0
01:59 1026 30.3 855 25.25 9.1 48.3 67 3.3 38 0
02:00 1026 30.3 855 25.25 9.1 48.3 67 3.3 37.9 0
02:01 1026 30.3 855 25.25 9.1 48.3 68 3.5 38.3 0
02:02 1026 30.3 855 25.25 9.1 48.3 68 3.5 38.3 0
02:03 1026 30.3 855 25.25 9 48.3 69 3.6 38.5 0
02:04 1026 30.3 855 25.25 9 48.2 69 3.7 38.7 0
02:05 1026 30.3 855 25.25 9 48.1 70 3.7 38.7 0
02:06 1026 30.3 855 25.25 8.9 48.1 70 3.7 38.7 0
02:07 1025 30.27 855 25.25 8.9 48.1 69 3.6 38.5 0
02:08 1025 30.27 855 25.25 8.9 48.1 68 3.5 38.2 0
02:09 1026 30.3 855 25.25 8.9 48 69 3.6 38.6 0
02:10 1026 30.3 855 25.25 8.9 48 68 3.4 38.2 0
02:11 1026 30.3 855 25.25 8.9 48 69 3.5 38.4 0
02:12 1026 30.3 855 25.25 8.9 48 69 3.6 38.5 0
02:13 1026 30.3 855 25.25 8.9 47.9 70 3.7 38.7 0
02:14 1026 30.3 855 25.25 8.8 47.9 69 3.5 38.4 0
02:15 1026 30.3 855 25.25 8.8 47.8 69 3.5 38.3 0
02:16 1026 30.3 855 25.25 8.8 47.9 70 3.6 38.5 0
02:17 1026 30.3 855 25.25 8.8 47.8 69 3.4 38.2 0
02:18 1026 30.3 855 25.25 8.8 47.9 68 3.3 38 0
02:19 1026 30.3 855 25.25 8.8 47.9 70 3.7 38.6 0
02:20 1026 30.3 855 25.25 8.8 47.8 70 3.7 38.6 0
02:21 1026 30.3 855 25.25 8.8 47.8 71 3.8 38.8 0
02:22 1026 30.3 855 25.25 8.8 47.9 70 3.6 38.5 0
02:23 1026 30.3 855 25.25 8.8 47.8 69 3.5 38.3 0
02:24 1026 30.3 855 25.25 8.8 47.8 70 3.6 38.4 0
02:25 1026 30.3 855 25.25 8.7 47.7 70 3.5 38.3 0
02:26 1026 30.3 855 25.25 8.7 47.7 70 3.6 38.5 0
02:27 1026 30.3 855 25.25 8.7 47.7 70 3.6 38.5 0
02:28 1026 30.3 855 25.25 8.7 47.6 71 3.7 38.6 0
02:29 1026 30.3 855 25.25 8.7 47.6 70 3.6 38.5 0
02:30 1026 30.3 855 25.25 8.7 47.6 71 3.7 38.7 0
02:31 1026 30.3 855 25.25 8.7 47.6 72 3.9 38.9 0
02:32 1026 30.3 855 25.25 8.6 47.5 71 3.7 38.7 0
02:33 1026 30.3 855 25.25 8.7 47.6 71 3.7 38.7 0
02:34 1026 30.3 855 25.25 8.6 47.6 71 3.8 38.8 0
02:35 1026 30.3 855 25.25 8.6 47.4 72 3.8 38.8 0
02:36 1026 30.3 855 25.25 8.6 47.4 71 3.7 38.6 0
02:37 1026 30.3 855 25.25 8.6 47.5 72 3.9 39 0
02:38 1026 30.3 855 25.25 8.6 47.5 71 3.7 38.7 0
02:39 1026 30.3 855 25.25 8.6 47.5 72 3.8 38.8 0
02:40 1026 30.3 855 25.25 8.6 47.4 71 3.6 38.5 0
02:41 1026 30.3 855 25.25 8.6 47.5 71 3.7 38.7 0
02:42 1026 30.3 855 25.25 8.6 47.5 71 3.7 38.6 0
02:43 1026 30.3 855 25.25 8.6 47.5 71 3.8 38.8 0
02:44 1026 30.3 855 25.25 8.6 47.5 72 3.8 38.8 0
02:45 1026 30.3 855 25.25 8.6 47.5 72 3.9 38.9 0
02:46 1026 30.3 855 25.25 8.6 47.5 72 3.9 39.1 0
02:47 1026 30.3 855 25.25 8.6 47.5 72 3.8 38.8 0
02:48 1026 30.3 855 25.25 8.6 47.5 73 4 39.2 0
02:49 1026 30.3 855 25.25 8.6 47.5 72 3.9 39 0
02:50 1026 30.3 855 25.25 8.6 47.5 73 4.1 39.3 0
02:51 1026 30.3 855 25.25 8.6 47.5 73 4.1 39.4 0
02:52 1026 30.3 855 25.25 8.5 47.3 73 3.9 39.1 0
02:53 1026 30.3 855 25.25 8.5 47.3 73 3.9 39 0
02:54 1026 30.3 855 25.25 8.5 47.2 73 4 39.2 0
02:55 1026 30.3 855 25.25 8.4 47.2 74 4 39.2 0
02:56 1026 30.3 855 25.25 8.4 47.1 74 4 39.2 0
02:57 1026 30.3 855 25.25 8.4 47.1 74 4 39.2 0
02:58 1026 30.3 855 25.25 8.4 47.1 73 3.8 38.9 0
02:59 1026 30.3 855 25.25 8.3 47 74 3.9 39 0
03:00 1026 30.3 855 25.25 8.4 47.1 73 3.8 38.9 0
03:01 1026 30.3 855 25.25 8.3 47 74 4 39.1 0
03:02 1026 30.3 855 25.25 8.3 47 74 4 39.1 0
03:03 1026 30.3 855 25.25 8.3 47 74 3.9 39 0
03:04 1026 30.3 855 25.25 8.3 46.9 73 3.8 38.8 0
03:05 1026 30.3 855 25.25 8.3 47 73 3.8 38.9 0
03:06 1026 30.3 855 25.25 8.3 46.9 73 3.8 38.9 0
03:07 1026 30.3 855 25.25 8.3 46.9 73 3.8 38.8 0
03:08 1026 30.3 855 25.25 8.2 46.8 74 3.9 39 0
03:09 1026 30.3 855 25.25 8.2 46.8 74 3.9 39 0
03:10 1026 30.3 855 25.25 8.2 46.8 74 3.8 38.9 0
03:11 1026 30.3 855 25.25 8.2 46.7 75 4 39.2 0
03:12 1026 30.3 855 25.25 8.1 46.7 75 4 39.2 0
03:13 1026 30.3 855 25.25 8.1 46.6 74 3.7 38.7 0
03:14 1026 30.3 855 25.25 8.1 46.6 75 4 39.1 0
03:15 1026 30.3 855 25.25 8.1 46.6 75 3.9 39.1 0
03:16 1026 30.3 855 25.25 8.1 46.5 75 3.9 39.1 0
03:17 1026 30.3 855 25.25 8 46.5 75 3.9 39 0
03:18 1026 30.3 855 25.25 8 46.5 75 3.9 38.9 0
03:19 1026 30.3 855 25.25 8 46.4 75 3.9 38.9 0
03:20 1026 30.3 855 25.25 8 46.3 75 3.8 38.9 0
03:21 1026 30.3 855 25.25 8 46.3 76 3.9 39.1 0
03:22 1026 30.3 855 25.25 7.9 46.3 76 3.9 39 0
03:23 1026 30.3 856 25.28 7.9 46.3 75 3.8 38.8 0
03:24 1026 30.3 855 25.25 7.9 46.2 75 3.7 38.7 0
03:25 1026 30.3 855 25.25 7.9 46.2 74 3.5 38.2 0
03:26 1026 30.3 855 25.25 7.9 46.2 74 3.5 38.3 0
03:27 1026 30.3 855 25.25 7.9 46.2 75 3.8 38.8 0
03:28 1026 30.3 855 25.25 7.9 46.2 75 3.6 38.6 0
03:29 1026 30.3 855 25.25 7.9 46.1 74 3.6 38.5 0
03:30 1026 30.3 855 25.25 7.8 46 74 3.4 38.1 0
03:31 1026 30.3 855 25.25 7.8 46.1 75 3.8 38.8 0
03:32 1026 30.3 855 25.25 7.8 46 76 3.7 38.7 0
03:33 1026 30.3 855 25.25 7.7 45.9 75 3.7 38.6 0
03:34 1026 30.3 856 25.28 7.7 45.9 75 3.6 38.5 0
03:35 1026 30.3 856 25.28 7.7 45.8 76 3.7 38.6 0
03:36 1026 30.3 856 25.28 7.7 45.8 75 3.6 38.5 0
03:37 1026 30.3 856 25.28 7.6 45.7 75 3.5 38.3 0
03:38 1026 30.3 855 25.25 7.6 45.6 76 3.6 38.5 0
03:39 1026 30.3 855 25.25 7.6 45.6 76 3.7 38.6 0
03:40 1026 30.3 855 25.25 7.5 45.5 76 3.6 38.6 0
03:41 1026 30.3 855 25.25 7.5 45.5 76 3.6 38.6 0
03:42 1026 30.3 856 25.28 7.5 45.5 77 3.7 38.7 0
03:43 1026 30.3 856 25.28 7.5 45.4 77 3.7 38.6 0
03:44 1026 30.3 856 25.28 7.4 45.3 77 3.7 38.7 0
03:45 1026 30.3 856 25.28 7.4 45.3 77 3.6 38.6 0
03:46 1026 30.3 856 25.28 7.4 45.3 78 3.7 38.7 0
03:47 1026 30.3 856 25.28 7.4 45.2 77 3.7 38.6 0
03:48 1026 30.3 856 25.28 7.4 45.3 78 3.9 38.9 0
03:49 1026 30.3 856 25.28 7.3 45.2 78 3.7 38.7 0
03:50 1026 30.3 856 25.28 7.3 45.2 77 3.6 38.5 0
03:51 1026 30.3 856 25.28 7.3 45.1 77 3.6 38.4 0
03:52 1026 30.3 856 25.28 7.3 45.1 78 3.6 38.5 0
03:53 1026 30.3 856 25.28 7.3 45.1 78 3.7 38.6 0
03:54 1026 30.3 856 25.28 7.3 45.1 78 3.6 38.5 0
03:55 1026 30.3 856 25.28 7.2 45 78 3.6 38.6 0
03:56 1026 30.3 856 25.28 7.2 44.9 78 3.6 38.5 0
03:57 1026 30.3 856 25.28 7.1 44.8 78 3.6 38.5 0
03:58 1026 30.3 856 25.28 7.1 44.7 78 3.6 38.4 0
03:59 1026 30.3 856 25.28 7.1 44.7 78 3.6 38.4 0
04:00 1026 30.3 856 25.28 7.1 44.7 79 3.7 38.6 0
04:01 1026 30.3 856 25.28 7 44.5 79 3.5 38.3 0
04:02 1026 30.3 856 25.28 7 44.6 79 3.6 38.5 0
04:03 1026 30.3 856 25.28 7 44.6 79 3.6 38.4 0
04:04 1026 30.3 856 25.28 7 44.5 79 3.7 38.6 0
04:05 1026 30.3 856 25.28 6.9 44.5 79 3.6 38.5 0
04:06 1026 30.3 856 25.28 6.9 44.5 80 3.7 38.6 0
04:07 1026 30.3 856 25.28 6.9 44.4 80 3.6 38.5 0
04:08 1026 30.3 856 25.28 6.9 44.4 80 3.7 38.7 0
04:09 1026 30.3 856 25.28 6.9 44.4 80 3.6 38.6 0
04:10 1026 30.3 856 25.28 6.9 44.4 80 3.7 38.7 0
04:11 1026 30.3 856 25.28 6.9 44.4 80 3.7 38.7 0
04:12 1026 30.3 856 25.28 6.8 44.3 80 3.7 38.7 0
04:13 1026 30.3 856 25.28 6.8 44.3 81 3.7 38.7 0
04:14 1026 30.3 856 25.28 6.7 44.1 81 3.6 38.6 0
04:15 1026 30.3 856 25.28 6.7 44.1 80 3.6 38.4 0
04:16 1026 30.3 856 25.28 6.7 44.1 80 3.6 38.5 0
04:17 1027 30.33 856 25.28 6.7 44.1 80 3.6 38.4 0
04:18 1027 30.33 856 25.28 6.7 44.1 81 3.6 38.5 0
04:19 1027 30.33 856 25.28 6.7 44 81 3.7 38.6 0
04:20 1027 30.33 856 25.28 6.7 44 81 3.6 38.5 0
04:21 1027 30.33 856 25.28 6.7 44.1 80 3.6 38.4 0
04:22 1027 30.33 856 25.28 6.7 44 81 3.6 38.5 0
04:23 1026 30.3 856 25.28 6.6 43.9 81 3.6 38.5 0
04:24 1027 30.33 856 25.28 6.6 43.9 81 3.6 38.5 0
04:25 1027 30.33 856 25.28 6.6 43.9 81 3.6 38.5 0
04:26 1027 30.33 856 25.28 6.6 43.9 81 3.6 38.6 0
04:27 1027 30.33 856 25.28 6.6 43.9 81 3.7 38.6 0
04:28 1027 30.33 856 25.28 6.6 43.8 82 3.7 38.6 0
04:29 1027 30.33 856 25.28 6.6 43.8 82 3.7 38.6 0
04:30 1027 30.33 856 25.28 6.6 43.8 81 3.5 38.4 0
04:31 1027 30.33 856 25.28 6.5 43.8 81 3.6 38.4 0
04:32 1027 30.33 856 25.28 6.6 43.8 81 3.6 38.6 0
04:33 1027 30.33 856 25.28 6.6 43.8 82 3.7 38.6 0
04:34 1027 30.33 856 25.28 6.6 43.8 82 3.7 38.6 0
04:35 1027 30.33 856 25.28 6.6 43.8 82 3.6 38.5 0
04:36 1027 30.33 856 25.28 6.5 43.7 82 3.6 38.5 0
04:37 1027 30.33 856 25.28 6.5 43.7 82 3.6 38.5 0
04:38 1027 30.33 856 25.28 6.5 43.7 82 3.7 38.6 0
04:39 1027 30.33 856 25.28 6.5 43.6 82 3.6 38.4 0
04:40 1027 30.33 856 25.28 6.5 43.7 82 3.7 38.6 0
04:41 1027 30.33 856 25.28 6.5 43.7 82 3.6 38.5 0
04:42 1027 30.33 856 25.28 6.5 43.6 81 3.4 38.2 0
04:43 1027 30.33 856 25.28 6.5 43.7 81 3.5 38.3 0
04:44 1027 30.33 856 25.28 6.5 43.7 82 3.6 38.5 0
04:45 1027 30.33 856 25.28 6.5 43.7 82 3.6 38.5 0
04:46 1027 30.33 856 25.28 6.5 43.7 82 3.6 38.4 0
04:47 1027 30.33 856 25.28 6.5 43.7 81 3.5 38.4 0
04:48 1027 30.33 856 25.28 6.5 43.7 81 3.5 38.3 0
04:49 1027 30.33 856 25.28 6.5 43.8 82 3.6 38.5 0
04:50 1027 30.33 856 25.28 6.5 43.7 81 3.5 38.4 0
04:51 1027 30.33 856 25.28 6.5 43.7 81 3.5 38.4 0
04:52 1027 30.33 856 25.28 6.5 43.6 81 3.5 38.4 0
04:53 1027 30.33 856 25.28 6.5 43.7 81 3.5 38.4 0
04:54 1027 30.33 856 25.28 6.5 43.6 82 3.5 38.4 0
04:55 1027 30.33 856 25.28 6.5 43.6 81 3.5 38.3 0
04:56 1027 30.33 856 25.28 6.5 43.6 80 3.3 37.9 0
04:57 1027 30.33 856 25.28 6.5 43.7 81 3.5 38.2 0
04:58 1027 30.33 856 25.28 6.5 43.7 81 3.5 38.3 0
04:59 1027 30.33 856 25.28 6.5 43.7 81 3.5 38.3 0
05:00 1027 30.33 856 25.28 6.5 43.7 81 3.5 38.2 0
05:01 1027 30.33 856 25.28 6.5 43.6 81 3.5 38.3 0
05:02 1027 30.33 856 25.28 6.5 43.7 81 3.5 38.2 0
05:03 1027 30.33 856 25.28 6.4 43.6 82 3.5 38.4 0
05:04 1027 30.33 856 25.28 6.4 43.6 81 3.4 38.2 0
05:05 1027 30.33 856 25.28 6.4 43.6 81 3.4 38.2 0
05:06 1027 30.33 856 25.28 6.4 43.6 82 3.5 38.4 0
05:07 1027 30.33 856 25.28 6.4 43.5 82 3.5 38.3 0
05:08 1027 30.33 856 25.28 6.4 43.5 81 3.4 38.1 0
05:09 1027 30.33 856 25.28 6.4 43.5 82 3.6 38.4 0
05:10 1027 30.33 856 25.28 6.3 43.4 82 3.6 38.4 0
05:11 1027 30.33 856 25.28 6.3 43.3 82 3.5 38.2 0
05:12 1027 30.33 856 25.28 6.2 43.2 83 3.5 38.3 0
05:13 1027 30.33 856 25.28 6.2 43.2 82 3.4 38.1 0
05:14 1027 30.33 856 25.28 6.2 43.2 82 3.4 38.1 0
05:15 1027 30.33 856 25.28 6.2 43.1 82 3.4 38.1 0
05:16 1027 30.33 856 25.28 6.2 43.1 82 3.4 38.1 0
05:17 1027 30.33 856 25.28 6.2 43.1 82 3.3 38 0
05:18 1027 30.33 856 25.28 6.2 43.1 82 3.3 38 0
05:19 1027 30.33 856 25.28 6.2 43.1 82 3.3 38 0
05:20 1027 30.33 856 25.28 6.2 43.1 82 3.3 38 0
05:21 1027 30.33 856 25.28 6.2 43.1 82 3.4 38.1 0
05:22 1027 30.33 856 25.28 6.2 43.1 82 3.4 38 0
05:23 1027 30.33 856 25.28 6.1 43 83 3.3 38 0
05:24 1027 30.33 856 25.28 6.1 42.9 83 3.4 38.1 0
05:25 1027 30.33 856 25.28 6 42.9 83 3.3 38 0
05:26 1027 30.33 856 25.28 6 42.8 83 3.3 38 0
05:27 1027 30.33 856 25.28 6 42.8 83 3.3 37.9 0
05:28 1027 30.33 856 25.28 6 42.7 83 3.3 37.9 0
05:29 1027 30.33 856 25.28 6 42.7 83 3.3 37.9 0
05:30 1027 30.33 856 25.28 5.9 42.7 83 3.3 37.9 0
05:31 1027 30.33 856 25.28 5.9 42.7 83 3.3 37.9 0
05:32 1027 30.33 856 25.28 5.9 42.6 83 3.3 37.9 0
05:33 1027 30.33 856 25.28 5.9 42.6 83 3.3 37.9 0
05:34 1027 30.33 856 25.28 5.8 42.5 83 3.2 37.7 0
05:35 1027 30.33 856 25.28 5.8 42.4 83 3.2 37.7 0
05:36 1027 30.33 856 25.28 5.8 42.4 83 3.2 37.7 0
05:37 1027 30.33 856 25.28 5.7 42.2 84 3.1 37.7 0
05:38 1027 30.33 856 25.28 5.7 42.2 84 3.1 37.7 0
05:39 1027 30.33 856 25.28 5.6 42.1 84 3.1 37.6 0
05:40 1027 30.33 856 25.28 5.6 42 84 3.1 37.6 0
05:41 1027 30.33 856 25.28 5.6 42.1 84 3.1 37.6 0
05:42 1027 30.33 856 25.28 5.5 42 84 3.1 37.5 0
05:43 1027 30.33 856 25.28 5.5 41.9 84 3.1 37.6 0
05:44 1027 30.33 856 25.28 5.4 41.8 85 3.1 37.5 0
05:45 1027 30.33 856 25.28 5.4 41.7 85 3.1 37.5 0
05:46 1027 30.33 856 25.28 5.4 41.7 85 3.1 37.5 0
05:47 1027 30.33 856 25.28 5.3 41.6 85 3.1 37.5 0
05:48 1027 30.33 856 25.28 5.3 41.5 86 3.1 37.5 0
05:49 1027 30.33 856 25.28 5.3 41.5 85 3 37.5 0
05:50 1027 30.33 857 25.31 5.3 41.5 86 3.1 37.5 0
05:51 1027 30.33 857 25.31 5.3 41.5 86 3.1 37.5 0
05:52 1027 30.33 857 25.31 5.3 41.5 86 3 37.5 0
05:53 1027 30.33 857 25.31 5.3 41.6 86 3.1 37.6 0
05:54 1027 30.33 857 25.31 5.3 41.5 86 3.1 37.6 0
05:55 1027 30.33 857 25.31 5.3 41.6 86 3.2 37.7 0
05:56 1027 30.33 857 25.31 5.3 41.6 86 3.2 37.7 0
05:57 1027 30.33 857 25.31 5.4 41.7 86 3.2 37.8 0
05:58 1027 30.33 857 25.31 5.4 41.6 86 3.2 37.7 0
05:59 1027 30.33 857 25.31 5.3 41.6 86 3.2 37.7 0
06:00 1027 30.33 857 25.31 5.3 41.6 86 3.1 37.6 0
06:01 1027 30.33 857 25.31 5.4 41.6 86 3.1 37.6 0
06:02 1027 30.33 857 25.31 5.3 41.6 85 3.1 37.5 0
06:03 1027 30.33 857 25.31 5.3 41.6 86 3.1 37.6 0
06:04 1027 30.33 857 25.31 5.3 41.6 86 3.1 37.6 0
06:05 1027 30.33 857 25.31 5.3 41.5 86 3.1 37.6 0
06:06 1027 30.33 857 25.31 5.2 41.4 86 3.1 37.6 0
06:07 1027 30.33 857 25.31 5.1 41.2 87 3 37.5 0
06:08 1027 30.33 857 25.31 5 41.1 87 3 37.4 0
06:09 1028 30.36 857 25.31 5 41 87 3 37.4 0
06:10 1028 30.36 857 25.31 5 41 87 3 37.4 0
06:11 1028 30.36 857 25.31 5 40.9 87 2.9 37.3 0
06:12 1028 30.36 857 25.31 4.9 40.9 87 2.9 37.3 0
06:13 1028 30.36 857 25.31 4.9 40.7 87 3 37.3 0
06:14 1028 30.36 857 25.31 4.8 40.6 88 2.9 37.3 0
06:15 1028 30.36 857 25.31 4.8 40.6 88 3 37.3 0
06:16 1028 30.36 857 25.31 4.8 40.6 88 3 37.3 0
06:17 1028 30.36 857 25.31 4.8 40.6 88 3 37.4 0
06:18 1028 30.36 857 25.31 4.8 40.6 88 3 37.3 0
06:19 1028 30.36 857 25.31 4.7 40.5 88 2.9 37.3 0
06:20 1028 30.36 857 25.31 4.8 40.6 89 3 37.5 0
06:21 1028 30.36 857 25.31 4.7 40.5 88 3 37.4 0
06:22 1028 30.36 857 25.31 4.8 40.6 89 3 37.5 0
06:23 1028 30.36 857 25.31 4.8 40.6 89 3.1 37.5 0
06:24 1028 30.36 857 25.31 4.8 40.7 89 3.1 37.6 0
06:25 1028 30.36 857 25.31 4.9 40.8 89 3.1 37.7 0
06:26 1028 30.36 857 25.31 4.9 40.8 89 3.2 37.7 0
06:27 1028 30.36 857 25.31 5 41 88 3.2 37.8 0
06:28 1028 30.36 857 25.31 5 41 88 3.2 37.8 0
06:29 1028 30.36 857 25.31 5 41 88 3.2 37.8 0
06:30 1028 30.36 857 25.31 5 41.1 88 3.2 37.8 0
06:31 1028 30.36 857 25.31 5.1 41.1 88 3.2 37.8 0
06:32 1028 30.36 857 25.31 5.1 41.1 88 3.2 37.8 0
06:33 1028 30.36 857 25.31 5.1 41.1 88 3.2 37.8 0
06:34 1028 30.36 857 25.31 5 41.1 88 3.2 37.8 0
06:35 1028 30.36 857 25.31 5 41 88 3.2 37.7 0
06:36 1028 30.36 857 25.31 5 41 88 3.2 37.8 0
06:37 1028 30.36 857 25.31 5 41 88 3.2 37.8 0
06:38 1028 30.36 857 25.31 5 41 88 3.2 37.8 0
06:39 1028 30.36 857 25.31 5 41.1 88 3.3 37.9 0
06:40 1028 30.36 857 25.31 5.1 41.1 88 3.3 37.9 0
06:41 1028 30.36 857 25.31 5.1 41.2 88 3.3 38 0
06:42 1028 30.36 857 25.31 5.1 41.2 88 3.3 38 0
06:43 1028 30.36 857 25.31 5.1 41.2 88 3.3 37.9 0
06:44 1028 30.36 857 25.31 5.1 41.2 88 3.3 38 0
06:45 1028 30.36 857 25.31 5.2 41.3 88 3.3 37.9 0
06:46 1028 30.36 857 25.31 5.2 41.3 87 3.2 37.8 0
06:47 1028 30.36 857 25.31 5.2 41.4 88 3.3 38 0
06:48 1028 30.36 857 25.31 5.2 41.4 88 3.3 38 0
06:49 1028 30.36 857 25.31 5.2 41.4 88 3.3 38 0
06:50 1028 30.36 857 25.31 5.2 41.4 88 3.3 38 0
06:51 1028 30.36 857 25.31 5.2 41.4 88 3.3 38 0
06:52 1028 30.36 857 25.31 5.2 41.4 87 3.3 38 0
06:53 1028 30.36 857 25.31 5.2 41.4 87 3.3 37.9 0
06:54 1028 30.36 857 25.31 5.2 41.4 87 3.3 37.9 0
06:55 1028 30.36 857 25.31 5.2 41.4 87 3.3 37.9 0
06:56 1028 30.36 857 25.31 5.2 41.4 87 3.3 37.9 0
06:57 1028 30.36 857 25.31 5.2 41.3 88 3.3 37.9 0
06:58 1028 30.36 857 25.31 5.1 41.2 88 3.3 37.9 0
06:59 1028 30.36 857 25.31 5.1 41.1 88 3.3 37.9 0
07:00 1028 30.36 857 25.31 5.1 41.1 88 3.3 38 0
07:01 1028 30.36 857 25.31 5 41 89 3.3 37.9 0
07:02 1028 30.36 857 25.31 5 40.9 89 3.3 37.9 0
07:03 1028 30.36 857 25.31 5 41 89 3.3 38 0
07:04 1028 30.36 857 25.31 5 41 89 3.3 38 0
07:05 1028 30.36 858 25.34 5.1 41.1 89 3.3 38 0
07:06 1028 30.36 858 25.34 5.1 41.2 89 3.4 38.1 0
07:07 1028 30.36 858 25.34 5.1 41.2 89 3.4 38.1 0
07:08 1028 30.36 858 25.34 5.2 41.3 89 3.4 38.2 0
07:09 1028 30.36 858 25.34 5.2 41.4 88 3.4 38.2 0
07:10 1028 30.36 858 25.34 5.3 41.5 88 3.5 38.2 0
07:11 1028 30.36 858 25.34 5.3 41.5 88 3.5 38.3 0
07:12 1028 30.36 858 25.34 5.3 41.6 88 3.5 38.3 0
07:13 1028 30.36 858 25.34 5.4 41.7 88 3.6 38.4 0
07:14 1028 30.36 858 25.34 5.4 41.8 88 3.6 38.4 0
07:15 1028 30.36 858 25.34 5.4 41.8 88 3.6 38.4 0
07:16 1028 30.36 858 25.34 5.5 41.9 87 3.6 38.4 0
07:17 1028 30.36 858 25.34 5.5 41.9 87 3.6 38.4 0
07:18 1028 30.36 858 25.34 5.5 42 86 3.5 38.2 0
07:19 1028 30.36 858 25.34 5.6 42.1 87 3.5 38.4 0
07:20 1028 30.36 858 25.34 5.7 42.2 87 3.6 38.6 0
07:21 1028 30.36 858 25.34 5.7 42.2 86 3.5 38.3 0
07:22 1028 30.36 858 25.34 5.7 42.3 87 3.6 38.5 0
07:23 1028 30.36 858 25.34 5.7 42.2 86 3.6 38.4 0
07:24 1028 30.36 858 25.34 5.7 42.3 85 3.4 38.2 0
07:25 1028 30.36 858 25.34 5.8 42.4 86 3.6 38.5 0
07:26 1028 30.36 858 25.34 5.7 42.3 86 3.5 38.4 0
07:27 1028 30.36 858 25.34 5.8 42.4 86 3.6 38.5 0
07:28 1028 30.36 858 25.34 5.8 42.4 86 3.6 38.4 0
07:29 1028 30.36 858 25.34 5.8 42.4 86 3.6 38.5 0
07:30 1028 30.36 858 25.34 5.8 42.4 85 3.5 38.4 0
07:31 1028 30.36 858 25.34 5.8 42.5 85 3.6 38.4 0
07:32 1028 30.36 858 25.34 5.8 42.5 86 3.6 38.4 0
07:33 1028 30.36 858 25.34 5.8 42.5 86 3.6 38.5 0
07:34 1028 30.36 858 25.34 5.8 42.5 85 3.6 38.5 0
07:35 1028 30.36 858 25.34 5.9 42.6 85 3.5 38.2 0
07:36 1028 30.36 858 25.34 5.8 42.5 85 3.5 38.3 0
07:37 1028 30.36 858 25.34 5.8 42.5 85 3.5 38.2 0
07:38 1028 30.36 858 25.34 5.8 42.5 85 3.5 38.3 0
07:39 1028 30.36 858 25.34 5.8 42.5 86 3.6 38.5 0
07:40 1028 30.36 858 25.34 5.8 42.5 86 3.6 38.5 0
07:41 1028 30.36 858 25.34 5.8 42.4 85 3.5 38.3 0
07:42 1028 30.36 858 25.34 5.9 42.5 85 3.6 38.5 0
07:43 1028 30.36 858 25.34 5.9 42.5 85 3.6 38.5 0
07:44 1028 30.36 858 25.34 5.9 42.6 85 3.6 38.6 0
07:45 1028 30.36 858 25.34 5.9 42.6 85 3.6 38.5 0
07:46 1028 30.36 858 25.34 5.9 42.6 85 3.6 38.5 0
07:47 1028 30.36 858 25.34 5.9 42.6 85 3.5 38.4 0
07:48 1028 30.36 858 25.34 5.9 42.6 85 3.6 38.5 0
07:49 1028 30.36 858 25.34 5.9 42.6 85 3.5 38.3 0
07:50 1028 30.36 858 25.34 5.9 42.6 85 3.5 38.3 0
07:51 1029 30.39 858 25.34 5.9 42.6 85 3.6 38.4 0
07:52 1029 30.39 858 25.34 5.9 42.6 85 3.5 38.4 0
07:53 1029 30.39 858 25.34 5.9 42.7 85 3.5 38.4 0
07:54 1029 30.39 858 25.34 5.9 42.7 85 3.6 38.4 0
07:55 1029 30.39 858 25.34 5.9 42.7 85 3.6 38.5 0
07:56 1029 30.39 858 25.34 5.9 42.7 85 3.6 38.5 0
07:57 1029 30.39 858 25.34 6 42.8 85 3.7 38.7 0
07:58 1029 30.39 858 25.34 6 42.8 85 3.7 38.6 0
07:59 1029 30.39 858 25.34 6 42.8 85 3.6 38.5 0
08:00 1029 30.39 858 25.34 6.1 42.9 85 3.7 38.6 0
08:01 1029 30.39 858 25.34 6.1 42.9 85 3.7 38.6 0
08:02 1029 30.39 858 25.34 6 42.9 85 3.7 38.6 0
08:03 1029 30.39 858 25.34 6.1 43 84 3.6 38.5 0
08:04 1029 30.39 858 25.34 6.1 43 85 3.8 38.8 0
08:05 1029 30.39 858 25.34 6.2 43.1 85 3.8 38.9 0
08:06 1029 30.39 858 25.34 6.2 43.1 83 3.6 38.4 0
08:07 1029 30.39 858 25.34 6.2 43.1 83 3.6 38.4 0
08:08 1029 30.39 858 25.34 6.2 43.2 83 3.6 38.4 0
08:09 1029 30.39 858 25.34 6.2 43.2 84 3.7 38.7 0
08:10 1029 30.39 858 25.34 6.3 43.3 84 3.7 38.6 0
08:11 1029 30.39 858 25.34 6.3 43.4 84 3.8 38.9 0
08:12 1029 30.39 858 25.34 6.4 43.5 84 3.9 39 0
08:13 1029 30.39 858 25.34 6.5 43.6 83 3.8 38.8 0
08:14 1029 30.39 858 25.34 6.6 43.9 82 3.8 38.9 0
08:15 1029 30.39 858 25.34 6.8 44.2 81 3.7 38.6 0
08:16 1029 30.39 858 25.34 6.8 44.3 81 3.8 38.8 0
08:17 1029 30.39 858 25.34 6.8 44.3 81 3.7 38.7 0
08:18 1029 30.39 858 25.34 6.8 44.3 81 3.8 38.9 0
08:19 1029 30.39 858 25.34 6.9 44.4 81 3.8 38.9 0
08:20 1029 30.39 858 25.34 6.9 44.5 80 3.7 38.6 0
08:21 1029 30.39 858 25.34 7 44.6 79 3.7 38.6 0
08:22 1029 30.39 858 25.34 7 44.6 81 4 39.2 0
08:23 1029 30.39 858 25.34 7.1 44.8 80 3.9 39.1 0
08:24 1029 30.39 858 25.34 7.2 44.9 79 3.7 38.7 0
08:25 1029 30.39 858 25.34 7.1 44.8 79 3.8 38.8 0
08:26 1029 30.39 858 25.34 7.1 44.8 78 3.6 38.4 0
08:27 1029 30.39 858 25.34 7.1 44.7 79 3.8 38.8 0
08:28 1029 30.39 858 25.34 7.1 44.8 80 3.9 39 0
08:29 1029 30.39 858 25.34 7.3 45.1 79 3.8 38.8 0
08:30 1029 30.39 858 25.34 7.3 45.1 77 3.6 38.4 0
08:31 1028 30.36 858 25.34 7.3 45.1 78 3.7 38.7 0
08:32 1029 30.39 858 25.34 7.3 45.1 78 3.7 38.6 0
08:33 1028 30.36 858 25.34 7.3 45.2 78 3.8 38.8 0
08:34 1029 30.39 858 25.34 7.3 45.2 78 3.7 38.6 0
08:35 1029 30.39 858 25.34 7.3 45.1 78 3.8 38.8 0
08:36 1029 30.39 858 25.34 7.4 45.3 78 3.8 38.9 0
08:37 1029 30.39 858 25.34 7.5 45.5 77 3.7 38.6 0
08:38 1029 30.39 858 25.34 7.5 45.4 77 3.8 38.8 0
08:39 1029 30.39 858 25.34 7.4 45.4 78 3.8 38.8 0
08:40 1029 30.39 858 25.34 7.3 45.2 78 3.8 38.8 0
08:41 1029 30.39 858 25.34 7.3 45.1 78 3.7 38.6 0
08:42 1029 30.39 858 25.34 7.1 44.7 80 3.8 38.8 0
08:43 1029 30.39 858 25.34 7 44.6 80 3.8 38.8 0
08:44 1029 30.39 858 25.34 7 44.6 79 3.6 38.4 0
08:45 1029 30.39 858 25.34 6.9 44.4 81 3.8 38.8 0
08:46 1029 30.39 858 25.34 6.9 44.4 79 3.5 38.3 0
08:47 1029 30.39 858 25.34 6.9 44.4 80 3.6 38.6 0
08:48 1029 30.39 858 25.34 6.9 44.4 80 3.7 38.6 0
08:49 1029 30.39 858 25.34 6.9 44.4 79 3.5 38.3 0
08:50 1029 30.39 858 25.34 6.8 44.3 79 3.5 38.3 0
08:51 1029 30.39 858 25.34 6.9 44.4 80 3.6 38.5 0
08:52 1029 30.39 858 25.34 6.9 44.5 80 3.7 38.7 0
08:53 1029 30.39 858 25.34 7 44.6 79 3.6 38.5 0
08:54 1029 30.39 858 25.34 7 44.7 79 3.6 38.5 0
08:55 1029 30.39 858 25.34 7.1 44.7 80 3.8 38.8 0
08:56 1029 30.39 858 25.34 7.1 44.8 78 3.6 38.4 0
08:57 1029 30.39 858 25.34 7.2 44.9 79 3.7 38.6 0
08:58 1029 30.39 858 25.34 7.2 45 78 3.6 38.4 0
08:59 1029 30.39 858 25.34 7.2 45 79 3.8 38.8 0
09:00 1029 30.39 858 25.34 7.2 45 78 3.6 38.5 0
09:01 1029 30.39 858 25.34 7.2 44.9 78 3.6 38.5 0
09:02 1029 30.39 858 25.34 7.2 44.9 79 3.8 38.9 0
09:03 1029 30.39 858 25.34 7.2 45 79 3.8 38.8 0
09:04 1029 30.39 858 25.34 7.3 45.1 79 3.9 39 0
09:05 1029 30.39 858 25.34 7.3 45.2 77 3.6 38.5 0
09:06 1029 30.39 858 25.34 7.3 45.2 79 3.8 38.9 0
09:07 1029 30.39 858 25.34 7.3 45.2 79 3.9 39.1 0
09:08 1029 30.39 858 25.34 7.4 45.3 78 3.8 38.9 0
09:09 1029 30.39 858 25.34 7.4 45.3 77 3.7 38.6 0
09:10 1029 30.39 858 25.34 7.4 45.3 77 3.7 38.6 0
09:11 1029 30.39 858 25.34 7.4 45.4 77 3.7 38.6 0
09:12 1029 30.39 858 25.34 7.4 45.2 78 3.7 38.7 0
09:13 1029 30.39 858 25.34 7.4 45.3 79 4 39.2 0
09:14 1029 30.39 858 25.34 7.4 45.3 77 3.7 38.6 0
09:15 1029 30.39 858 25.34 7.4 45.3 77 3.7 38.6 0
09:16 1029 30.39 858 25.34 7.3 45.2 77 3.6 38.5 0
09:17 1029 30.39 858 25.34 7.3 45.1 77 3.6 38.4 0
09:18 1029 30.39 858 25.34 7.2 44.9 78 3.6 38.5 0
09:19 1029 30.39 858 25.34 7.1 44.8 77 3.4 38.2 0
09:20 1029 30.39 858 25.34 7.1 44.8 78 3.5 38.3 0
09:21 1029 30.39 858 25.34 7.1 44.8 79 3.8 38.8 0
09:22 1029 30.39 858 25.34 7.1 44.8 78 3.5 38.3 0
09:23 1029 30.39 858 25.34 7.1 44.7 77 3.4 38.1 0
09:24 1029 30.39 858 25.34 7.1 44.8 78 3.6 38.4 0
09:25 1029 30.39 858 25.34 7.1 44.7 79 3.6 38.5 0
09:26 1029 30.39 858 25.34 7.1 44.7 77 3.4 38.1 0
09:27 1029 30.39 858 25.34 7.1 44.7 77 3.4 38.1 0
09:28 1029 30.39 858 25.34 7.1 44.7 76 3.2 37.8 0
09:29 1029 30.39 858 25.34 7.1 44.8 78 3.5 38.2 0
09:30 1029 30.39 858 25.34 7.1 44.8 78 3.6 38.4 0
09:31 1029 30.39 858 25.34 7.1 44.8 78 3.5 38.4 0
09:32 1029 30.39 858 25.34 7.2 44.9 77 3.3 38 0
09:33 1029 30.39 858 25.34 7.2 44.9 78 3.6 38.4 0
09:34 1029 30.39 858 25.34 7.2 45 76 3.3 38 0
09:35 1029 30.39 858 25.34 7.2 45 77 3.4 38.2 0
09:36 1029 30.39 858 25.34 7.3 45.2 77 3.5 38.3 0
09:37 1029 30.39 858 25.34 7.4 45.3 77 3.6 38.5 0
09:38 1029 30.39 858 25.34 7.5 45.5 77 3.8 38.9 0
09:39 1029 30.39 858 25.34 7.6 45.8 76 3.6 38.5 0
09:40 1029 30.39 858 25.34 7.6 45.8 73 3.2 37.8 0
09:41 1029 30.39 858 25.34 7.7 45.8 73 3.2 37.7 0
09:42 1029 30.39 858 25.34 7.7 45.8 73 3.2 37.8 0
09:43 1029 30.39 858 25.34 7.7 45.8 73 3.1 37.5 0
09:44 1029 30.39 858 25.34 7.7 45.9 75 3.6 38.5 0
09:45 1029 30.39 858 25.34 7.8 46 74 3.5 38.4 0
09:46 1029 30.39 858 25.34 7.9 46.1 74 3.5 38.3 0
09:47 1029 30.39 858 25.34 7.9 46.1 73 3.4 38.1 0
09:48 1029 30.39 858 25.34 7.8 46.1 73 3.3 38 0
09:49 1029 30.39 858 25.34 7.8 46.1 74 3.5 38.2 0
09:50 1029 30.39 858 25.34 7.8 46 73 3.2 37.8 0
09:51 1029 30.39 858 25.34 7.7 45.9 73 3.2 37.7 0
09:52 1029 30.39 858 25.34 7.7 45.9 73 3.1 37.6 0
09:53 1029 30.39 858 25.34 7.7 45.9 73 3.2 37.8 0
09:54 1029 30.39 858 25.34 7.7 45.9 74 3.5 38.2 0
09:55 1029 30.39 858 25.34 7.7 45.9 73 3.3 37.9 0
09:56 1029 30.39 858 25.34 7.8 46 73 3.2 37.8 0
09:57 1029 30.39 858 25.34 7.8 46.1 74 3.5 38.4 0
09:58 1029 30.39 858 25.34 7.8 46.1 73 3.2 37.8 0
09:59 1029 30.39 858 25.34 7.9 46.1 72 3.2 37.8 0
10:00 1029 30.39 858 25.34 7.9 46.1 72 3.2 37.7 0
10:01 1029 30.39 858 25.34 7.8 46.1 72 3.1 37.6 0
10:02 1029 30.39 858 25.34 7.9 46.1 73 3.4 38.1 0
10:03 1029 30.39 858 25.34 7.9 46.3 73 3.5 38.3 0
10:04 1029 30.39 858 25.34 8 46.3 72 3.2 37.8 0
10:05 1029 30.39 858 25.34 8 46.4 71 3.1 37.5 0
10:06 1029 30.39 858 25.34 8 46.5 72 3.3 37.9 0
10:07 1029 30.39 858 25.34 8.3 46.9 71 3.3 38 0
10:08 1029 30.39 858 25.34 8.4 47.2 72 3.6 38.5 0
10:09 1029 30.39 858 25.34 8.6 47.4 70 3.4 38 0
10:10 1029 30.39 858 25.34 8.6 47.5 70 3.5 38.2 0
10:11 1029 30.39 858 25.34 8.6 47.5 69 3.3 38 0
10:12 1029 30.39 858 25.34 8.6 47.4 70 3.3 38 0
10:13 1029 30.39 858 25.34 8.5 47.3 68 2.9 37.3 0
10:14 1029 30.39 858 25.34 8.5 47.3 70 3.4 38.1 0
10:15 1029 30.39 858 25.34 8.5 47.3 71 3.5 38.3 0
10:16 1029 30.39 858 25.34 8.6 47.4 69 3.3 37.9 0
10:17 1029 30.39 858 25.34 8.6 47.5 72 3.8 38.9 0
10:18 1029 30.39 858 25.34 8.7 47.7 69 3.4 38 0
10:19 1029 30.39 858 25.34 8.7 47.6 70 3.6 38.5 0
10:20 1029 30.39 858 25.34 8.7 47.7 69 3.4 38.2 0
10:21 1029 30.39 858 25.34 8.7 47.6 69 3.4 38.2 0
10:22 1029 30.39 858 25.34 8.7 47.6 73 4 39.3 0
10:23 1029 30.39 858 25.34 8.7 47.7 71 3.7 38.7 0
10:24 1029 30.39 858 25.34 8.8 47.8 69 3.6 38.4 0
10:25 1029 30.39 858 25.34 8.8 47.9 69 3.5 38.3 0
10:26 1029 30.39 858 25.34 8.7 47.7 69 3.5 38.3 0
10:27 1029 30.39 858 25.34 8.8 47.8 68 3.3 38 0
10:28 1029 30.39 858 25.34 8.8 47.9 69 3.5 38.3 0
10:29 1029 30.39 858 25.34 8.9 48 70 3.7 38.6 0
10:30 1029 30.39 858 25.34 8.9 48 67 3.2 37.7 0
10:31 1029 30.39 858 25.34 8.9 47.9 69 3.5 38.2 0
10:32 1029 30.39 858 25.34 8.9 48 69 3.5 38.2 0
10:33 1029 30.39 858 25.34 8.9 48.1 68 3.3 38 0
10:34 1029 30.39 858 25.34 9 48.1 68 3.4 38.1 0
10:35 1029 30.39 858 25.34 9.1 48.3 69 3.8 38.8 0
10:36 1029 30.39 858 25.34 9.1 48.4 67 3.3 37.9 0
10:37 1029 30.39 858 25.34 9.2 48.5 65 2.9 37.2 0
10:38 1029 30.39 858 25.34 9.1 48.5 64 2.7 36.9 0
10:39 1029 30.39 858 25.34 9.1 48.3 65 2.8 37 0
10:40 1029 30.39 858 25.34 9 48.3 65 2.9 37.1 0
10:41 1029 30.39 858 25.34 9.1 48.4 65 3 37.4 0
10:42 1029 30.39 858 25.34 9.1 48.4 65 3 37.4 0
10:43 1029 30.39 858 25.34 9.1 48.5 65 2.9 37.2 0
10:44 1029 30.39 858 25.34 9.3 48.7 65 3 37.5 0
10:45 1029 30.39 858 25.34 9.4 48.8 68 3.7 38.7 0
10:46 1029 30.39 858 25.34 9.5 49.2 65 3.4 38.1 0
10:47 1029 30.39 858 25.34 9.7 49.5 61 2.6 36.6 0
10:48 1029 30.39 858 25.34 9.6 49.2 62 2.7 36.9 0
10:49 1029 30.39 858 25.34 9.6 49.3 65 3.3 38 0
10:50 1029 30.39 858 25.34 9.7 49.4 64 3.1 37.6 0
10:51 1029 30.39 858 25.34 9.6 49.3 65 3.4 38.1 0
10:52 1029 30.39 858 25.34 9.6 49.2 65 3.3 38 0
10:53 1029 30.39 858 25.34 9.6 49.3 62 2.7 36.8 0
10:54 1029 30.39 858 25.34 9.6 49.2 65 3.3 38 0
10:55 1029 30.39 858 25.34 9.7 49.4 60 2.4 36.3 0
10:56 1029 30.39 858 25.34 9.6 49.2 63 3 37.4 0
10:57 1029 30.39 858 25.34 9.6 49.3 63 2.9 37.2 0
10:58 1029 30.39 858 25.34 9.7 49.5 61 2.6 36.6 0
10:59 1029 30.39 858 25.34 9.8 49.6 59 2.2 36 0
11:00 1029 30.39 858 25.34 9.7 49.5 62 2.8 37 0
11:01 1029 30.39 858 25.34 9.7 49.5 60 2.5 36.5 0
11:02 1029 30.39 858 25.34 9.7 49.4 60 2.2 36 0
11:03 1029 30.39 858 25.34 9.6 49.3 63 2.9 37.3 0
11:04 1029 30.39 858 25.34 9.6 49.3 60 2.2 36 0
11:05 1029 30.39 858 25.34 9.6 49.2 60 2.2 36 0
11:06 1029 30.39 858 25.34 9.5 49.1 63 2.9 37.2 0
11:07 1029 30.39 858 25.34 9.5 49.1 64 3.1 37.5 0
11:08 1029 30.39 858 25.34 9.6 49.2 59 2 35.5 0
11:09 1029 30.39 858 25.34 9.5 49.1 60 2.2 36 0
11:10 1029 30.39 858 25.34 9.5 49.1 63 2.9 37.2 0
11:11 1029 30.39 858 25.34 9.6 49.3 61 2.6 36.7 0
11:12 1029 30.39 858 25.34 9.8 49.6 61 2.7 36.9 0
11:13 1029 30.39 858 25.34 9.9 49.9 62 2.9 37.3 0
11:14 1029 30.39 858 25.34 10 50 63 3.3 38 0
11:15 1029 30.39 858 25.34 10.2 50.4 61 3.1 37.5 0
11:16 1029 30.39 858 25.34 10.3 50.5 59 2.6 36.7 0
11:17 1028 30.36 858 25.34 10.1 50.1 60 2.6 36.7 0
11:18 1028 30.36 858 25.34 9.9 49.9 62 3 37.3 0
11:19 1028 30.36 858 25.34 9.9 49.7 60 2.5 36.5 0
11:20 1028 30.36 858 25.34 9.7 49.5 64 3.2 37.8 0
11:21 1028 30.36 858 25.34 9.7 49.4 64 3.2 37.7 0
11:22 1028 30.36 858 25.34 9.7 49.4 61 2.6 36.6 0
11:23 1028 30.36 858 25.34 9.6 49.4 61 2.4 36.4 0
11:24 1028 30.36 858 25.34 9.6 49.4 63 3 37.4 0
11:25 1028 30.36 858 25.34 9.7 49.4 62 2.8 37 0
11:26 1028 30.36 858 25.34 9.6 49.2 63 3 37.4 0
11:27 1028 30.36 858 25.34 9.5 49.2 65 3.3 37.9 0
11:28 1028 30.36 858 25.34 9.6 49.4 64 3.1 37.6 0
11:29 1028 30.36 858 25.34 9.8 49.6 62 2.8 37.1 0
11:30 1028 30.36 858 25.34 9.8 49.6 63 3 37.4 0
11:31 1028 30.36 858 25.34 9.7 49.5 62 2.9 37.2 0
11:32 1028 30.36 858 25.34 9.7 49.4 64 3.1 37.6 0
11:33 1028 30.36 858 25.34 9.7 49.4 62 2.7 36.9 0
11:34 1028 30.36 858 25.34 9.7 49.5 62 2.9 37.2 0
11:35 1028 30.36 858 25.34 9.7 49.5 63 3 37.4 0
11:36 1028 30.36 858 25.34 9.8 49.6 63 3.2 37.8 0
11:37 1028 30.36 858 25.34 9.9 49.8 66 3.8 38.8 0
11:38 1028 30.36 858 25.34 10 49.9 65 3.7 38.6 0
11:39 1028 30.36 858 25.34 10 50 66 3.9 39 0
11:40 1028 30.36 858 25.34 9.9 49.8 64 3.4 38.1 0
11:41 1028 30.36 858 25.34 9.7 49.5 65 3.4 38.2 0
11:42 1028 30.36 858 25.34 9.6 49.3 65 3.5 38.2 0
11:43 1028 30.36 858 25.34 9.6 49.3 63 3 37.3 0
11:44 1028 30.36 858 25.34 9.6 49.2 64 3.1 37.6 0
11:45 1028 30.36 858 25.34 9.6 49.2 66 3.5 38.3 0
11:46 1028 30.36 858 25.34 9.6 49.3 66 3.5 38.3 0
11:47 1028 30.36 858 25.34 9.7 49.5 63 3 37.4 0
11:48 1028 30.36 858 25.34 9.7 49.5 65 3.6 38.5 0
11:49 1028 30.36 858 25.34 9.7 49.5 65 3.6 38.4 0
11:50 1028 30.36 858 25.34 9.8 49.7 64 3.3 38 0
11:51 1028 30.36 858 25.34 9.9 49.8 63 3.3 38 0
11:52 1028 30.36 858 25.34 10 50 63 3.3 38 0
11:53 1028 30.36 858 25.34 10.1 50.1 65 3.8 38.8 0
11:54 1028 30.36 858 25.34 10.3 50.6 63 3.5 38.3 0
11:55 1029 30.39 858 25.34 10.6 51.1 59 2.9 37.2 0
11:56 1029 30.39 858 25.34 10.9 51.6 59 3.1 37.6 0
11:57 1028 30.36 858 25.34 11.1 51.9 62 4 39.2 0
11:58 1029 30.39 858 25.34 11.4 52.6 56 3 37.5 0
11:59 1028 30.36 858 25.34 11.7 53 59 3.9 39 0
12:00 1028 30.36 858 25.34 11.8 53.2 58 3.8 38.8 0
12:01 1028 30.36 857 25.31 11.8 53.3 55 3.2 37.8 0
12:02 1028 30.36 857 25.31 11.4 52.5 56 2.9 37.2 0
12:03 1028 30.36 857 25.31 11 51.8 59 3.3 38 0
12:04 1028 30.36 858 25.34 11.1 52.1 55 2.5 36.4 0
12:05 1028 30.36 858 25.34 11.2 52.2 58 3.4 38.1 0
12:06 1028 30.36 858 25.34 11.5 52.7 54 2.7 36.8 0
12:07 1028 30.36 858 25.34 11.5 52.7 61 4.3 39.7 0
12:08 1028 30.36 858 25.34 11.7 53.1 56 3.3 38 0
12:09 1028 30.36 858 25.34 11.8 53.2 56 3.3 38 0
12:10 1028 30.36 857 25.31 11.5 52.7 56 3 37.3 0
12:11 1028 30.36 857 25.31 11.3 52.4 56 2.9 37.3 0
12:12 1028 30.36 857 25.31 11.1 52 58 3.3 37.9 0
12:13 1028 30.36 858 25.34 11.2 52.2 58 3.4 38.2 0
12:14 1028 30.36 858 25.34 11.4 52.6 54 2.6 36.6 0
12:15 1028 30.36 857 25.31 11.4 52.6 53 2.3 36.2 0
12:16 1028 30.36 857 25.31 11.3 52.3 56 2.8 37 0
12:17 1028 30.36 857 25.31 11.3 52.3 62 4.3 39.7 0
12:18 1028 30.36 858 25.34 11.8 53.2 54 2.9 37.1 0
12:19 1028 30.36 857 25.31 12 53.7 50 2.1 35.8 0
12:20 1028 30.36 857 25.31 11.7 53 54 2.7 36.9 0
12:21 1028 30.36 857 25.31 11.6 52.8 58 3.6 38.4 0
12:22 1028 30.36 857 25.31 11.7 53.1 54 2.6 36.8 0
12:23 1028 30.36 857 25.31 11.4 52.6 54 2.4 36.3 0
12:24 1028 30.36 857 25.31 11.3 52.3 53 2.1 35.8 0
12:25 1028 30.36 857 25.31 11.4 52.6 52 2.1 35.7 0
12:26 1028 30.36 857 25.31 11.5 52.7 54 2.5 36.6 0
12:27 1028 30.36 857 25.31 11.5 52.6 55 2.9 37.2 0
12:28 1028 30.36 857 25.31 11.7 53.1 56 3.3 37.9 0
12:29 1028 30.36 857 25.31 11.9 53.4 51 2 35.7 0
12:30 1028 30.36 857 25.31 11.7 53 55 3.1 37.6 0
12:31 1028 30.36 857 25.31 11.7 53 52 2.2 36 0
12:32 1028 30.36 857 25.31 11.8 53.3 56 3.5 38.2 0
12:33 1028 30.36 857 25.31 12.1 53.8 51 2.4 36.3 0
12:34 1028 30.36 857 25.31 12 53.6 53 2.8 37 0
12:35 1028 30.36 857 25.31 11.9 53.4 51 2 35.7 0
12:36 1028 30.36 857 25.31 11.9 53.4 54 2.9 37.2 0
12:37 1028 30.36 857 25.31 12 53.6 52 2.5 36.5 0
12:38 1028 30.36 857 25.31 11.9 53.5 51 2.2 35.9 0
12:39 1028 30.36 857 25.31 11.9 53.3 50 1.9 35.3 0
12:40 1028 30.36 857 25.31 12.1 53.7 52 2.6 36.6 0
12:41 1028 30.36 857 25.31 12.2 53.9 54 3.3 37.9 0
12:42 1028 30.36 857 25.31 12.3 54.2 51 2.5 36.6 0
12:43 1028 30.36 857 25.31 12.5 54.4 52 3 37.4 0
12:44 1028 30.36 857 25.31 12.6 54.7 52 3 37.5 0
12:45 1028 30.36 857 25.31 12.8 55.1 47 1.9 35.5 0
12:46 1028 30.36 857 25.31 12.7 54.9 51 2.8 37 0
12:47 1028 30.36 857 25.31 12.6 54.6 51 2.8 37.1 0
12:48 1028 30.36 857 25.31 12.6 54.7 46 1.3 34.4 0
12:49 1028 30.36 857 25.31 12.4 54.2 48 1.9 35.3 0
12:50 1028 30.36 857 25.31 12.2 53.9 50 2 35.6 0
12:51 1028 30.36 857 25.31 12.1 53.9 49 1.9 35.4 0
12:52 1028 30.36 857 25.31 12.1 53.9 49 1.7 35.1 0
12:53 1028 30.36 857 25.31 12.3 54.1 47 1.3 34.3 0
12:54 1028 30.36 857 25.31 12.4 54.3 48 1.9 35.4 0
12:55 1028 30.36 857 25.31 12.6 54.6 50 2.4 36.3 0
12:56 1028 30.36 857 25.31 12.6 54.6 49 2.3 36.2 0
12:57 1028 30.36 857 25.31 12.6 54.6 49 2.1 35.8 0
12:58 1028 30.36 857 25.31 12.6 54.6 52 3.1 37.5 0
12:59 1028 30.36 857 25.31 12.8 55 50 2.8 37 0
13:00 1028 30.36 857 25.31 12.9 55.3 49 2.6 36.7 0
13:01 1028 30.36 857 25.31 12.9 55.2 49 2.6 36.6 0
13:02 1028 30.36 857 25.31 12.8 55.1 52 3.2 37.8 0
13:03 1028 30.36 857 25.31 12.7 54.9 48 2 35.6 0
13:04 1028 30.36 857 25.31 12.7 54.8 48 2.1 35.8 0
13:05 1028 30.36 857 25.31 12.7 54.9 47 1.7 35.1 0
13:06 1028 30.36 857 25.31 12.7 54.9 49 2.3 36.1 0
13:07 1028 30.36 857 25.31 12.8 55 49 2.3 36.2 0
13:08 1028 30.36 857 25.31 12.8 55 46 1.6 34.8 0
13:09 1028 30.36 857 25.31 12.7 54.8 49 2.4 36.3 0
13:10 1028 30.36 857 25.31 12.6 54.6 50 2.5 36.5 0
13:11 1028 30.36 857 25.31 12.5 54.4 51 2.5 36.6 0
13:12 1028 30.36 857 25.31 12.3 54.2 48 1.8 35.3 0
13:13 1028 30.36 857 25.31 12.2 54 50 2.1 35.8 0
13:14 1028 30.36 857 25.31 12.5 54.5 44 0.8 33.4 0
13:15 1028 30.36 857 25.31 12.5 54.5 50 2.3 36.1 0
13:16 1028 30.36 857 25.31 12.7 54.8 46 1.4 34.4 0
13:17 1028 30.36 857 25.31 12.8 55.1 47 1.8 35.3 0
13:18 1028 30.36 857 25.31 12.9 55.3 48 2.3 36.2 0
13:19 1028 30.36 857 25.31 13 55.3 48 2.4 36.3 0
13:20 1028 30.36 857 25.31 13 55.5 47 2 35.5 0
13:21 1028 30.36 857 25.31 13 55.4 48 2.2 35.9 0
13:22 1028 30.36 857 25.31 13.1 55.6 47 2.1 35.9 0
13:23 1028 30.36 857 25.31 13.1 55.5 46 1.9 35.3 0
13:24 1028 30.36 857 25.31 13.1 55.5 49 2.8 37 0
13:25 1028 30.36 857 25.31 13.1 55.6 50 3.1 37.5 0
13:26 1028 30.36 857 25.31 13.2 55.8 51 3.3 38 0
13:27 1028 30.36 857 25.31 13.3 55.9 49 3 37.4 0
13:28 1028 30.36 857 25.31 13.3 55.9 46 2 35.5 0
13:29 1028 30.36 857 25.31 13.2 55.7 47 2.1 35.8 0
13:30 1028 30.36 857 25.31 13.3 55.9 45 1.5 34.8 0
13:31 1028 30.36 857 25.31 13.4 56.1 48 2.6 36.7 0
13:32 1028 30.36 857 25.31 13.5 56.3 47 2.5 36.5 0
13:33 1028 30.36 857 25.31 13.5 56.3 47 2.7 36.8 0
13:34 1028 30.36 857 25.31 13.5 56.4 41 0.6 33.2 0
13:35 1028 30.36 857 25.31 13.4 56.1 46 2.1 35.8 0
13:36 1028 30.36 857 25.31 13.5 56.3 48 2.7 36.9 0
13:37 1028 30.36 857 25.31 13.5 56.3 45 1.9 35.4 0
13:38 1028 30.36 857 25.31 13.4 56.2 45 1.7 35.1 0
13:39 1028 30.36 857 25.31 13.4 56.1 44 1.3 34.4 0
13:40 1028 30.36 857 25.31 13.3 56 44 1.5 34.7 0
13:41 1027 30.33 857 25.31 13.4 56.1 42 0.9 33.6 0
13:42 1027 30.33 857 25.31 13.3 55.9 45 1.8 35.2 0
13:43 1027 30.33 857 25.31 13.4 56 48 2.5 36.6 0
13:44 1027 30.33 857 25.31 13.6 56.4 43 1.4 34.6 0
13:45 1027 30.33 857 25.31 13.7 56.7 45 2 35.6 0
13:46 1027 30.33 857 25.31 13.8 56.8 46 2.3 36.2 0
13:47 1027 30.33 857 25.31 13.7 56.6 45 2.1 35.7 0
13:48 1027 30.33 857 25.31 13.8 56.8 46 2.6 36.6 0
13:49 1027 30.33 857 25.31 13.9 56.9 41 0.8 33.5 0
13:50 1027 30.33 857 25.31 13.9 56.9 43 1.6 34.9 0
13:51 1027 30.33 857 25.31 13.8 56.9 44 1.8 35.3 0
13:52 1027 30.33 857 25.31 13.8 56.8 41 0.9 33.6 0
13:53 1027 30.33 857 25.31 13.8 56.9 46 2.6 36.6 0
13:54 1028 30.36 857 25.31 14 57.1 45 2.2 35.9 0
13:55 1028 30.36 857 25.31 14.2 57.5 46 2.8 37.1 0
13:56 1028 30.36 857 25.31 14.4 57.8 40 1 33.9 0
13:57 1028 30.36 857 25.31 14.4 58 38 0.5 32.9 0
13:58 1028 30.36 857 25.31 14.5 58.2 40 1.2 34.1 0
13:59 1027 30.33 857 25.31 14.7 58.4 42 2 35.5 0
14:00 1027 30.33 857 25.31 14.6 58.2 43 2.2 35.9 0
14:01 1027 30.33 857 25.31 14.3 57.8 43 2.1 35.8 0
14:02 1027 30.33 856 25.28 14.1 57.4 42 1.4 34.6 0
14:03 1027 30.33 857 25.31 14.1 57.3 44 2.2 35.9 0
14:04 1027 30.33 857 25.31 14.1 57.4 45 2.3 36.2 0
14:05 1027 30.33 857 25.31 14.3 57.7 43 1.9 35.3 0
14:06 1027 30.33 857 25.31 14.4 58 42 1.8 35.2 0
14:07 1027 30.33 857 25.31 14.5 58 41 1.5 34.6 0
14:08 1027 30.33 856 25.28 14.3 57.8 40 1.1 33.9 0
14:09 1027 30.33 856 25.28 14 57.3 41 1.2 34.2 0
14:10 1027 30.33 856 25.28 13.8 56.9 46 2.4 36.2 0
14:11 1027 30.33 856 25.28 13.6 56.4 42 0.8 33.5 0
14:12 1027 30.33 856 25.28 13.3 55.9 44 1.3 34.3 0
14:13 1027 30.33 856 25.28 13 55.5 46 1.7 35.1 0
14:14 1027 30.33 856 25.28 12.9 55.2 44 1 33.9 0
14:15 1027 30.33 856 25.28 12.8 55.1 43 0.6 33.1 0
14:16 1027 30.33 856 25.28 12.7 54.9 43 0.5 32.8 0
14:17 1027 30.33 856 25.28 12.6 54.8 49 2.3 36.1 0
14:18 1027 30.33 856 25.28 12.6 54.7 46 1.5 34.6 0
14:19 1027 30.33 856 25.28 12.6 54.6 50 2.6 36.6 0
14:20 1027 30.33 856 25.28 12.7 54.8 46 1.6 34.8 0
14:21 1027 30.33 856 25.28 12.7 54.8 45 1.1 33.9 0
14:22 1027 30.33 856 25.28 12.6 54.7 45 1.1 34 0
14:23 1027 30.33 856 25.28 12.5 54.6 44 0.7 33.2 0
14:24 1027 30.33 856 25.28 12.4 54.2 47 1.4 34.5 0
14:25 1027 30.33 856 25.28 12.3 54.1 45 0.7 33.2 0
14:26 1027 30.33 856 25.28 12.3 54.1 48 1.6 34.9 0
14:27 1027 30.33 856 25.28 12.3 54.2 44 0.6 33.1 0
14:28 1027 30.33 856 25.28 12.3 54.2 46 1 33.7 0
14:29 1027 30.33 856 25.28 12.3 54.2 46 0.9 33.7 0
14:30 1027 30.33 856 25.28 12.3 54.1 46 0.9 33.7 0
14:31 1027 30.33 856 25.28 12.3 54.2 48 1.7 35.1 0
14:32 1027 30.33 856 25.28 12.4 54.3 47 1.6 34.8 0
14:33 1027 30.33 856 25.28 12.4 54.3 45 0.7 33.3 0
14:34 1027 30.33 856 25.28 12.4 54.4 47 1.6 34.9 0
14:35 1027 30.33 856 25.28 12.5 54.4 48 1.7 35 0
14:36 1027 30.33 856 25.28 12.7 54.8 48 2.1 35.8 0
14:37 1027 30.33 856 25.28 13 55.3 47 2 35.5 0
14:38 1027 30.33 856 25.28 13.3 55.9 48 2.6 36.7 0
14:39 1027 30.33 856 25.28 13.6 56.4 40 0.4 32.6 0
14:40 1027 30.33 856 25.28 13.7 56.6 43 1.3 34.3 0
14:41 1027 30.33 856 25.28 13.9 57 44 2.1 35.7 0
14:42 1027 30.33 856 25.28 14.1 57.4 40 0.7 33.2 0
14:43 1027 30.33 856 25.28 14.3 57.7 42 1.7 35.1 0
14:44 1027 30.33 856 25.28 14.4 58 41 1.5 34.8 0
14:45 1027 30.33 856 25.28 14.6 58.2 37 0.2 32.4 0
14:46 1027 30.33 856 25.28 14.4 57.8 40 1.1 33.9 0
14:47 1027 30.33 856 25.28 14.3 57.7 38 0.3 32.5 0
14:48 1027 30.33 856 25.28 14.2 57.6 42 1.5 34.6 0
14:49 1027 30.33 856 25.28 14.5 58 41 1.5 34.7 0
14:50 1027 30.33 856 25.28 14.5 58.2 43 2.2 35.9 0
14:51 1027 30.33 856 25.28 14.5 58.1 44 2.4 36.4 0
14:52 1027 30.33 856 25.28 14.4 57.8 39 0.7 33.3 0
14:53 1027 30.33 856 25.28 14.1 57.5 38 0.1 32.1 0
14:54 1027 30.33 856 25.28 13.9 56.9 37 -0.4 31.2 0
14:55 1027 30.33 856 25.28 13.7 56.6 39 -0.1 31.8 0
14:56 1027 30.33 856 25.28 13.6 56.5 38 -0.3 31.5 0
14:57 1027 30.33 856 25.28 13.5 56.4 39 -0.1 31.8 0
14:58 1027 30.33 856 25.28 13.4 56.2 43 1.1 34 0
14:59 1027 30.33 856 25.28 13.6 56.5 39 0.1 32.1 0
15:00 1027 30.33 856 25.28 13.9 57 40 0.5 33 0
15:01 1027 30.33 856 25.28 14.1 57.4 41 1.1 34 0
15:02 1027 30.33 856 25.28 14.4 57.9 39 0.7 33.2 0
15:03 1027 30.33 856 25.28 14.4 58 36 -0.3 31.4 0
15:04 1027 30.33 856 25.28 14.5 58 39 0.8 33.4 0
15:05 1027 30.33 856 25.28 14.6 58.3 37 0.1 32.3 0
15:06 1027 30.33 856 25.28 14.7 58.5 33 -1.1 30 0
15:07 1027 30.33 856 25.28 14.7 58.4 41 1.7 35 0
15:08 1027 30.33 856 25.28 14.8 58.7 35 -0.3 31.4 0
15:09 1027 30.33 856 25.28 14.7 58.5 39 0.8 33.5 0
15:10 1027 30.33 856 25.28 14.8 58.6 35 -0.6 30.9 0
15:11 1027 30.33 856 25.28 14.6 58.4 33 -1.3 29.7 0
15:12 1027 30.33 856 25.28 14.7 58.4 34 -0.8 30.6 0
15:13 1027 30.33 856 25.28 14.7 58.5 35 -0.5 31.1 0
15:14 1027 30.33 856 25.28 14.6 58.3 36 -0.3 31.5 0
15:15 1027 30.33 856 25.28 14.6 58.2 39 0.7 33.2 0
15:16 1027 30.33 856 25.28 14.5 58.1 38 0.3 32.6 0
15:17 1027 30.33 856 25.28 14.3 57.8 35 -0.9 30.3 0
15:18 1027 30.33 856 25.28 14.1 57.3 37 -0.5 31.2 0
15:19 1027 30.33 856 25.28 13.9 57.1 40 0.8 33.4 0
15:20 1027 30.33 856 25.28 13.9 57 37 -0.5 31.1 0
15:21 1027 30.33 856 25.28 14.1 57.3 38 -0 32 0
15:22 1027 30.33 856 25.28 14.4 58 36 -0.3 31.5 0
15:23 1027 30.33 856 25.28 14.7 58.5 35 -0.5 31.1 0
15:24 1027 30.33 856 25.28 14.9 58.8 33 -1 30.1 0
15:25 1027 30.33 856 25.28 15.1 59.1 36 0.3 32.5 0
15:26 1027 30.33 856 25.28 15.3 59.6 33 -0.7 30.8 0
15:27 1027 30.33 856 25.28 15.5 59.9 34 -0.4 31.3 0
15:28 1027 30.33 856 25.28 15.5 59.9 36 0.7 33.2 0
15:29 1027 30.33 856 25.28 15.5 60 36 0.8 33.4 0
15:30 1027 30.33 856 25.28 15.5 60 36 0.6 33.1 0
15:31 1027 30.33 856 25.28 15.5 59.9 32 -0.9 30.5 0
15:32 1027 30.33 856 25.28 15.5 59.8 33 -0.6 31 0
15:33 1027 30.33 856 25.28 15.3 59.6 38 1.1 33.9 0
15:34 1027 30.33 856 25.28 15.2 59.3 38 1 33.8 0
15:35 1027 30.33 856 25.28 15.2 59.4 36 0.2 32.3 0
15:36 1027 30.33 856 25.28 15.1 59.2 39 1.4 34.6 0
15:37 1027 30.33 856 25.28 15.2 59.3 35 0 32.1 0
15:38 1027 30.33 856 25.28 15 59 38 0.8 33.4 0
15:39 1027 30.33 856 25.28 14.8 58.7 38 0.6 33 0
15:40 1027 30.33 856 25.28 14.9 58.7 41 1.8 35.3 0
15:41 1027 30.33 856 25.28 15 58.9 42 2.3 36.2 0
15:42 1027 30.33 856 25.28 15.1 59.2 41 1.9 35.4 0
15:43 1027 30.33 856 25.28 15 59 39 1.3 34.4 0
15:44 1027 30.33 856 25.28 14.9 58.9 41 2 35.5 0
15:45 1027 30.33 856 25.28 15.1 59.1 38 0.8 33.5 0
15:46 1027 30.33 856 25.28 15 58.9 37 0.6 33.1 0
15:47 1026 30.3 856 25.28 14.8 58.6 40 1.5 34.7 0
15:48 1026 30.3 856 25.28 14.5 58.1 37 0 32 0
15:49 1026 30.3 856 25.28 14.2 57.6 39 0.6 33.1 0
15:50 1026 30.3 856 25.28 14 57.1 39 0.1 32.2 0
15:51 1026 30.3 856 25.28 13.7 56.7 40 0.6 33.1 0
15:52 1026 30.3 856 25.28 13.6 56.5 38 -0.5 31.1 0
15:53 1026 30.3 856 25.28 13.5 56.3 41 0.5 32.9 0
15:54 1026 30.3 856 25.28 13.4 56.1 40 0 32.1 0
15:55 1026 30.3 856 25.28 13.3 56 40 -0 31.9 0
15:56 1026 30.3 856 25.28 13.3 55.9 42 0.9 33.6 0
15:57 1026 30.3 856 25.28 13.2 55.8 38 -0.6 31 0
15:58 1026 30.3 856 25.28 13.3 55.9 42 0.6 33.1 0
15:59 1027 30.33 856 25.28 13.5 56.2 42 0.8 33.5 0
16:00 1027 30.33 856 25.28 13.8 56.8 36 -0.9 30.4 0
16:01 1027 30.33 856 25.28 14.1 57.4 33 -1.7 29 0
16:02 1027 30.33 856 25.28 14.3 57.8 36 -0.5 31 0
16:03 1027 30.33 856 25.28 14.5 58 34 -1.2 29.9 0
16:04 1027 30.33 856 25.28 14.6 58.4 34 -0.8 30.5 0
16:05 1027 30.33 856 25.28 14.9 58.8 34 -0.6 30.9 0
16:06 1027 30.33 856 25.28 15.1 59.2 35 -0.1 31.8 0
16:07 1027 30.33 856 25.28 15.2 59.4 38 1.2 34.1 0
16:08 1027 30.33 856 25.28 15.3 59.5 39 1.6 34.9 0
16:09 1027 30.33 856 25.28 15.4 59.8 43 2.9 37.2 0
16:10 1027 30.33 856 25.28 15.6 60.1 38 1.5 34.7 0
16:11 1026 30.3 856 25.28 15.4 59.7 40 2.1 35.7 0
16:12 1026 30.3 856 25.28 15.1 59.2 42 2.5 36.5 0
16:13 1026 30.3 856 25.28 15 59.1 42 2.2 35.9 0
16:14 1026 30.3 856 25.28 15.1 59.2 41 1.9 35.5 0
16:15 1026 30.3 856 25.28 15 59 43 2.7 36.8 0
16:16 1026 30.3 856 25.28 15.1 59.2 39 1.4 34.6 0
16:17 1026 30.3 856 25.28 15.1 59.2 40 1.8 35.3 0
16:18 1026 30.3 856 25.28 15 59 40 1.7 35 0
16:19 1026 30.3 856 25.28 15 58.9 40 1.6 34.8 0
16:20 1026 30.3 856 25.28 14.8 58.6 42 2.1 35.9 0
16:21 1026 30.3 856 25.28 14.7 58.5 43 2.2 36 0
16:22 1026 30.3 856 25.28 14.7 58.4 40 1.3 34.3 0
16:23 1026 30.3 856 25.28 14.5 58.1 41 1.4 34.4 0
16:24 1026 30.3 856 25.28 14.3 57.7 43 2 35.5 0
16:25 1026 30.3 856 25.28 14.2 57.5 43 2 35.6 0
16:26 1026 30.3 856 25.28 14.3 57.7 43 1.9 35.4 0
16:27 1026 30.3 856 25.28 14.4 57.9 42 1.9 35.4 0
16:28 1026 30.3 856 25.28 14.6 58.3 40 1.1 34.1 0
16:29 1026 30.3 856 25.28 14.6 58.3 41 1.4 34.6 0
16:30 1026 30.3 856 25.28 14.5 58.2 41 1.4 34.5 0
16:31 1026 30.3 856 25.28 14.4 57.9 42 1.8 35.3 0
16:32 1026 30.3 856 25.28 14.4 57.9 42 1.9 35.4 0
16:33 1026 30.3 856 25.28 14.4 57.9 43 2 35.6 0
16:34 1026 30.3 856 25.28 14.4 57.8 42 1.7 35.1 0
16:35 1026 30.3 856 25.28 14.4 58 41 1.4 34.5 0
16:36 1026 30.3 856 25.28 14.4 57.9 42 1.6 34.9 0
16:37 1026 30.3 856 25.28 14.4 57.9 41 1.5 34.8 0
16:38 1026 30.3 856 25.28 14.4 58 43 2.2 36 0
16:39 1026 30.3 856 25.28 14.7 58.4 43 2.3 36.2 0
16:40 1026 30.3 856 25.28 14.8 58.7 38 0.7 33.3 0
16:41 1026 30.3 856 25.28 14.9 58.7 43 2.3 36.2 0
16:42 1026 30.3 856 25.28 14.9 58.9 38 0.9 33.7 0
16:43 1026 30.3 855 25.25 14.9 58.8 39 1.1 34 0
16:44 1026 30.3 855 25.25 14.5 58.1 40 1.3 34.3 0
16:45 1026 30.3 855 25.25 14.5 58 40 1.2 34.2 0
16:46 1026 30.3 855 25.25 14.5 58.1 41 1.6 34.8 0
16:47 1026 30.3 855 25.25 14.5 58 42 1.7 35 0
16:48 1026 30.3 855 25.25 14.5 58 39 0.7 33.3 0
16:49 1026 30.3 855 25.25 14.4 57.9 41 1.3 34.3 0
16:50 1026 30.3 855 25.25 14.4 58 42 1.8 35.3 0
16:51 1026 30.3 855 25.25 14.7 58.5 40 1.5 34.6 0
16:52 1026 30.3 855 25.25 14.8 58.7 41 1.7 35.1 0
16:53 1026 30.3 855 25.25 14.8 58.6 40 1.6 34.8 0
16:54 1026 30.3 855 25.25 14.7 58.5 40 1.3 34.4 0
16:55 1026 30.3 855 25.25 14.7 58.4 39 1.1 33.9 0
16:56 1026 30.3 855 25.25 14.5 58.2 40 1.3 34.3 0
16:57 1026 30.3 855 25.25 14.4 58 41 1.5 34.7 0
16:58 1026 30.3 855 25.25 14.5 58 42 1.7 35.1 0
16:59 1026 30.3 855 25.25 14.6 58.2 41 1.4 34.5 0
17:00 1026 30.3 855 25.25 14.5 58.1 41 1.4 34.5 0
17:01 1026 30.3 855 25.25 14.5 58.1 40 1 33.7 0
17:02 1026 30.3 856 25.28 14.4 58 40 1.2 34.1 0
17:03 1026 30.3 855 25.25 14.4 58 39 0.9 33.6 0
17:04 1026 30.3 856 25.28 14.4 57.8 40 0.9 33.6 0
17:05 1026 30.3 856 25.28 14.3 57.7 40 1.1 34 0
17:06 1026 30.3 856 25.28 14.3 57.7 42 1.5 34.7 0
17:07 1026 30.3 856 25.28 14.3 57.8 41 1.4 34.6 0
17:08 1026 30.3 855 25.25 14.2 57.6 44 2.2 35.9 0
17:09 1026 30.3 855 25.25 14.2 57.6 42 1.6 35 0
17:10 1026 30.3 855 25.25 14.2 57.5 42 1.6 34.9 0
17:11 1026 30.3 855 25.25 14.2 57.5 40 1 33.7 0
17:12 1026 30.3 855 25.25 14.1 57.4 42 1.6 34.9 0
17:13 1026 30.3 856 25.28 14.1 57.4 42 1.5 34.8 0
17:14 1026 30.3 856 25.28 14.1 57.4 41 1.3 34.3 0
17:15 1026 30.3 856 25.28 14.1 57.3 41 1 33.9 0
17:16 1026 30.3 856 25.28 14.1 57.4 41 1.2 34.2 0
17:17 1026 30.3 856 25.28 14 57.2 42 1.3 34.3 0
17:18 1026 30.3 856 25.28 13.9 56.9 44 1.8 35.2 0
17:19 1026 30.3 856 25.28 13.9 56.9 43 1.6 34.9 0
17:20 1026 30.3 856 25.28 14 57.2 43 1.8 35.2 0
17:21 1026 30.3 856 25.28 14.1 57.5 42 1.4 34.5 0
17:22 1026 30.3 856 25.28 14.1 57.3 42 1.4 34.5 0
17:23 1026 30.3 856 25.28 14 57.2 42 1.3 34.4 0
17:24 1026 30.3 856 25.28 13.9 57.1 42 1.2 34.2 0
17:25 1026 30.3 856 25.28 13.9 57 42 1.3 34.3 0
17:26 1026 30.3 856 25.28 13.9 57 42 1.4 34.5 0
17:27 1026 30.3 856 25.28 13.9 57.1 42 1.4 34.4 0
17:28 1026 30.3 856 25.28 13.9 57.1 43 1.6 35 0
17:29 1026 30.3 856 25.28 14 57.1 42 1.3 34.4 0
17:30 1026 30.3 856 25.28 13.9 57 42 1.3 34.4 0
17:31 1026 30.3 856 25.28 13.7 56.7 42 1.1 34 0
17:32 1026 30.3 856 25.28 13.7 56.6 43 1.5 34.6 0
17:33 1026 30.3 856 25.28 13.8 56.8 42 1.1 33.9 0
17:34 1026 30.3 855 25.25 13.8 56.8 42 1.2 34.2 0
17:35 1026 30.3 855 25.25 13.7 56.7 44 1.6 35 0
17:36 1026 30.3 856 25.28 13.7 56.7 41 0.9 33.7 0
17:37 1026 30.3 855 25.25 13.6 56.6 42 1.1 33.9 0
17:38 1026 30.3 856 25.28 13.6 56.6 42 0.9 33.7 0
17:39 1026 30.3 855 25.25 13.6 56.6 41 0.6 33.1 0
17:40 1026 30.3 855 25.25 13.6 56.4 42 1 33.8 0
17:41 1026 30.3 855 25.25 13.5 56.3 42 1.1 33.9 0
17:42 1026 30.3 855 25.25 13.6 56.4 42 1.1 33.9 0
17:43 1026 30.3 855 25.25 13.6 56.4 43 1.1 34.1 0
17:44 1026 30.3 855 25.25 13.6 56.5 43 1.3 34.4 0
17:45 1026 30.3 855 25.25 13.7 56.6 43 1.4 34.5 0
17:46 1026 30.3 855 25.25 13.6 56.5 43 1.4 34.4 0
17:47 1026 30.3 855 25.25 13.5 56.3 43 1.3 34.4 0
17:48 1026 30.3 856 25.28 13.5 56.2 43 1.2 34.1 0
17:49 1026 30.3 855 25.25 13.5 56.3 43 1.3 34.3 0
17:50 1026 30.3 855 25.25 13.4 56.1 44 1.3 34.4 0
17:51 1026 30.3 855 25.25 13.2 55.8 45 1.5 34.7 0
17:52 1026 30.3 855 25.25 13.1 55.6 44 1.2 34.2 0
17:53 1026 30.3 855 25.25 13.1 55.5 45 1.6 34.9 0
17:54 1026 30.3 855 25.25 13.1 55.6 45 1.5 34.7 0
17:55 1026 30.3 855 25.25 13.1 55.6 45 1.5 34.8 0
17:56 1026 30.3 855 25.25 13.1 55.6 46 1.8 35.2 0
17:57 1026 30.3 855 25.25 13.1 55.7 45 1.5 34.7 0
17:58 1026 30.3 855 25.25 13.1 55.6 46 1.9 35.4 0
17:59 1026 30.3 855 25.25 13.1 55.6 45 1.5 34.8 0
18:00 1026 30.3 855 25.25 13.2 55.7 44 1.4 34.4 0
18:01 1026 30.3 855 25.25 13.1 55.6 45 1.4 34.6 0
18:02 1026 30.3 855 25.25 13 55.4 45 1.4 34.6 0
18:03 1026 30.3 855 25.25 12.9 55.2 46 1.7 35.1 0
18:04 1026 30.3 855 25.25 12.9 55.2 45 1.3 34.3 0
18:05 1026 30.3 855 25.25 13 55.3 47 2 35.6 0
18:06 1026 30.3 855 25.25 13 55.5 45 1.4 34.6 0
18:07 1026 30.3 855 25.25 13.1 55.5 45 1.3 34.4 0
18:08 1026 30.3 855 25.25 13 55.5 45 1.5 34.6 0
18:09 1026 30.3 855 25.25 13 55.4 45 1.3 34.4 0
18:10 1026 30.3 855 25.25 13 55.3 45 1.5 34.6 0
18:11 1026 30.3 855 25.25 12.9 55.2 46 1.5 34.8 0
18:12 1026 30.3 855 25.25 12.8 55.1 45 1.3 34.3 0
18:13 1026 30.3 855 25.25 12.8 55 46 1.6 34.8 0
18:14 1026 30.3 855 25.25 12.8 55 46 1.4 34.5 0
18:15 1026 30.3 855 25.25 12.7 54.9 45 1.1 34 0
18:16 1026 30.3 855 25.25 12.7 54.9 45 1.3 34.3 0
18:17 1026 30.3 855 25.25 12.6 54.7 47 1.6 35 0
18:18 1026 30.3 855 25.25 12.7 54.9 47 1.8 35.3 0
18:19 1026 30.3 855 25.25 12.8 55 47 1.7 35.1 0
18:20 1026 30.3 855 25.25 12.8 55 46 1.4 34.5 0
18:21 1026 30.3 855 25.25 12.7 54.8 44 1 33.7 0
18:22 1026 30.3 855 25.25 12.6 54.6 45 1 33.8 0
18:23 1026 30.3 855 25.25 12.5 54.6 46 1.2 34.2 0
18:24 1026 30.3 855 25.25 12.5 54.5 45 1 33.8 0
18:25 1026 30.3 855 25.25 12.5 54.5 45 0.9 33.5 0
18:26 1026 30.3 855 25.25 12.5 54.4 45 0.8 33.4 0
18:27 1026 30.3 855 25.25 12.5 54.5 45 1 33.9 0
18:28 1026 30.3 855 25.25 12.5 54.5 45 1 33.7 0
18:29 1026 30.3 855 25.25 12.4 54.4 46 1.1 33.9 0
18:30 1026 30.3 855 25.25 12.5 54.5 47 1.7 35.1 0
18:31 1026 30.3 855 25.25 12.6 54.6 47 1.5 34.6 0
18:32 1026 30.3 855 25.25 12.5 54.6 47 1.6 34.8 0
18:33 1026 30.3 855 25.25 12.5 54.5 46 1.3 34.4 0
18:34 1026 30.3 855 25.25 12.5 54.4 47 1.5 34.7 0
18:35 1026 30.3 855 25.25 12.4 54.3 47 1.4 34.4 0
18:36 1026 30.3 855 25.25 12.4 54.2 47 1.3 34.3 0
18:37 1026 30.3 855 25.25 12.3 54.1 46 1 33.7 0
18:38 1026 30.3 855 25.25 12.2 54 46 1 33.8 0
18:39 1026 30.3 855 25.25 12.1 53.9 48 1.5 34.7 0
18:40 1026 30.3 855 25.25 12.1 53.7 48 1.3 34.4 0
18:41 1026 30.3 855 25.25 12.1 53.7 47 1 33.9 0
18:42 1026 30.3 856 25.28 12 53.7 48 1.3 34.4 0
18:43 1026 30.3 856 25.28 12.1 53.7 47 1.2 34.2 0
18:44 1026 30.3 855 25.25 12 53.7 47 1.3 34.3 0
18:45 1026 30.3 856 25.28 12 53.6 48 1.3 34.4 0
18:46 1026 30.3 856 25.28 11.9 53.5 48 1.4 34.5 0
18:47 1026 30.3 856 25.28 12 53.5 48 1.3 34.4 0
18:48 1026 30.3 856 25.28 11.9 53.5 48 1.4 34.5 0
18:49 1026 30.3 856 25.28 11.8 53.3 49 1.4 34.5 0
18:50 1026 30.3 856 25.28 11.7 53.1 49 1.4 34.6 0
18:51 1026 30.3 856 25.28 11.7 53 49 1.4 34.5 0
18:52 1026 30.3 856 25.28 11.5 52.8 49 1.3 34.4 0
18:53 1026 30.3 856 25.28 11.4 52.6 50 1.4 34.5 0
18:54 1026 30.3 856 25.28 11.3 52.4 50 1.4 34.4 0
18:55 1026 30.3 856 25.28 11.2 52.2 51 1.5 34.7 0
18:56 1026 30.3 856 25.28 11.1 52.1 50 1.2 34.2 0
18:57 1026 30.3 856 25.28 11.1 52 51 1.3 34.3 0
18:58 1026 30.3 856 25.28 11.1 51.9 50 1.2 34.2 0
18:59 1026 30.3 856 25.28 11.1 51.9 50 1.2 34.1 0
19:00 1026 30.3 856 25.28 11.1 51.9 51 1.3 34.4 0
19:01 1026 30.3 856 25.28 11 51.8 51 1.4 34.5 0
19:02 1026 30.3 856 25.28 11 51.8 51 1.3 34.4 0
19:03 1026 30.3 856 25.28 11 51.8 51 1.2 34.1 0
19:04 1026 30.3 856 25.28 11 51.8 51 1.3 34.4 0
19:05 1026 30.3 856 25.28 10.9 51.7 52 1.4 34.5 0
19:06 1026 30.3 856 25.28 10.9 51.6 51 1.3 34.3 0
19:07 1026 30.3 856 25.28 10.9 51.6 50 0.8 33.4 0
19:08 1026 30.3 856 25.28 10.9 51.6 51 1.1 34 0
19:09 1026 30.3 856 25.28 10.9 51.7 51 1.2 34.1 0
19:10 1026 30.3 856 25.28 10.9 51.7 51 1.2 34.2 0
19:11 1026 30.3 856 25.28 10.9 51.6 52 1.4 34.4 0
19:12 1026 30.3 856 25.28 10.9 51.6 51 1.2 34.1 0
19:13 1026 30.3 856 25.28 10.9 51.6 52 1.4 34.5 0
19:14 1026 30.3 856 25.28 10.9 51.6 51 1.2 34.1 0
19:15 1026 30.3 856 25.28 10.9 51.6 51 1.3 34.3 0
19:16 1026 30.3 856 25.28 10.9 51.6 51 1.2 34.1 0
19:17 1026 30.3 856 25.28 10.9 51.6 51 1.3 34.3 0
19:18 1026 30.3 856 25.28 10.9 51.6 51 1.1 34 0
19:19 1026 30.3 856 25.28 10.9 51.6 51 1.1 34 0
19:20 1026 30.3 856 25.28 10.9 51.7 51 1.2 34.2 0
19:21 1026 30.3 856 25.28 10.9 51.7 51 1.3 34.4 0
19:22 1026 30.3 856 25.28 10.9 51.6 50 1 33.8 0
19:23 1026 30.3 856 25.28 11 51.7 50 1.1 33.9 0
19:24 1026 30.3 856 25.28 11 51.7 50 0.9 33.7 0
19:25 1026 30.3 856 25.28 11 51.7 51 1.2 34.1 0
19:26 1026 30.3 856 25.28 10.9 51.6 51 1.2 34.1 0
19:27 1026 30.3 856 25.28 10.8 51.5 51 1.1 33.9 0
19:28 1026 30.3 856 25.28 10.8 51.4 51 1.1 34.1 0
19:29 1027 30.33 856 25.28 10.8 51.4 51 1.1 33.9 0
19:30 1026 30.3 856 25.28 10.8 51.4 52 1.3 34.3 0
19:31 1027 30.33 856 25.28 10.7 51.3 52 1.2 34.1 0
19:32 1026 30.3 856 25.28 10.7 51.3 51 1 33.8 0
19:33 1026 30.3 856 25.28 10.7 51.3 51 1.1 33.9 0
19:34 1026 30.3 856 25.28 10.7 51.3 51 1 33.8 0
19:35 1026 30.3 856 25.28 10.7 51.2 51 1 33.7 0
19:36 1026 30.3 856 25.28 10.7 51.2 51 1 33.9 0
19:37 1026 30.3 856 25.28 10.7 51.2 51 1 33.8 0
19:38 1026 30.3 856 25.28 10.6 51.1 51 1 33.8 0
19:39 1026 30.3 856 25.28 10.6 51 51 1 33.8 0
19:40 1026 30.3 856 25.28 10.5 50.9 51 0.9 33.6 0
19:41 1027 30.33 856 25.28 10.5 50.9 52 1 33.8 0
19:42 1027 30.33 856 25.28 10.4 50.7 52 1 33.8 0
19:43 1027 30.33 856 25.28 10.3 50.6 52 0.9 33.7 0
19:44 1027 30.33 856 25.28 10.3 50.6 52 0.9 33.7 0
19:45 1027 30.33 856 25.28 10.3 50.6 52 1 33.8 0
19:46 1027 30.33 856 25.28 10.3 50.6 52 1 33.8 0
19:47 1027 30.33 856 25.28 10.3 50.5 53 1.1 33.9 0
19:48 1027 30.33 856 25.28 10.2 50.4 53 1 33.8 0
19:49 1027 30.33 856 25.28 10.2 50.3 53 1 33.9 0
19:50 1027 30.33 856 25.28 10.2 50.3 53 1 33.9 0
19:51 1027 30.33 856 25.28 10.1 50.2 53 1 33.8 0
19:52 1027 30.33 856 25.28 10.1 50.2 53 0.9 33.7 0
19:53 1027 30.33 856 25.28 10.1 50.2 53 1.1 33.9 0
19:54 1027 30.33 856 25.28 10.1 50.2 54 1.2 34.1 0
19:55 1027 30.33 856 25.28 10 50 54 1.2 34.2 0
19:56 1027 30.33 856 25.28 10 50 53 1 33.8 0
19:57 1027 30.33 856 25.28 10 50 53 0.9 33.7 0
19:58 1027 30.33 856 25.28 10 50.1 53 1 33.9 0
19:59 1027 30.33 856 25.28 10 50 54 1.1 33.9 0
20:00 1027 30.33 856 25.28 9.9 49.9 54 1 33.8 0
20:01 1027 30.33 856 25.28 9.9 49.9 54 1.1 33.9 0
20:02 1027 30.33 856 25.28 9.9 49.7 54 1.1 34.1 0
20:03 1027 30.33 856 25.28 9.8 49.6 55 1.2 34.1 0
20:04 1027 30.33 856 25.28 9.7 49.4 55 1.1 34 0
20:05 1027 30.33 856 25.28 9.7 49.4 55 1.1 33.9 0
20:06 1027 30.33 856 25.28 9.7 49.4 55 1.1 34 0
20:07 1027 30.33 856 25.28 9.6 49.3 55 1.1 34 0
20:08 1027 30.33 856 25.28 9.6 49.2 56 1.2 34.2 0
20:09 1027 30.33 856 25.28 9.5 49.1 56 1.2 34.2 0
20:10 1027 30.33 856 25.28 9.5 49.1 56 1.1 34.1 0
20:11 1027 30.33 856 25.28 9.5 49 56 1.1 33.9 0
20:12 1027 30.33 856 25.28 9.5 49 56 1.1 34.1 0
20:13 1027 30.33 856 25.28 9.4 49 56 1.1 33.9 0
20:14 1027 30.33 856 25.28 9.5 49 56 1.2 34.2 0
20:15 1027 30.33 856 25.28 9.4 48.8 57 1.2 34.2 0
20:16 1027 30.33 856 25.28 9.3 48.8 57 1.3 34.3 0
20:17 1027 30.33 856 25.28 9.2 48.6 57 1.2 34.1 0
20:18 1027 30.33 856 25.28 9.3 48.7 57 1.2 34.2 0
20:19 1027 30.33 856 25.28 9.4 48.9 57 1.3 34.3 0
20:20 1027 30.33 856 25.28 9.4 48.9 56 1.2 34.2 0
20:21 1027 30.33 856 25.28 9.4 48.9 57 1.3 34.3 0
20:22 1027 30.33 856 25.28 9.4 48.9 57 1.3 34.4 0
20:23 1027 30.33 856 25.28 9.4 48.8 57 1.2 34.1 0
20:24 1027 30.33 856 25.28 9.4 48.9 57 1.3 34.4 0
20:25 1027 30.33 856 25.28 9.4 48.8 57 1.2 34.2 0
20:26 1027 30.33 856 25.28 9.4 48.9 57 1.3 34.4 0
20:27 1027 30.33 856 25.28 9.4 48.8 56 1.2 34.1 0
20:28 1027 30.33 856 25.28 9.4 48.9 57 1.3 34.4 0
20:29 1027 30.33 856 25.28 9.4 48.9 57 1.4 34.5 0
20:30 1027 30.33 856 25.28 9.3 48.8 57 1.3 34.3 0
20:31 1027 30.33 856 25.28 9.3 48.8 57 1.2 34.2 0
20:32 1027 30.33 856 25.28 9.3 48.7 57 1.3 34.3 0
20:33 1027 30.33 856 25.28 9.2 48.6 57 1.3 34.3 0
20:34 1027 30.33 856 25.28 9.2 48.6 57 1.3 34.3 0
20:35 1027 30.33 856 25.28 9.2 48.6 58 1.4 34.5 0
20:36 1027 30.33 856 25.28 9.2 48.5 58 1.4 34.6 0
20:37 1027 30.33 856 25.28 9.1 48.4 58 1.2 34.2 0
20:38 1027 30.33 856 25.28 9.2 48.5 58 1.3 34.4 0
20:39 1027 30.33 856 25.28 9.1 48.3 58 1.4 34.5 0
20:40 1027 30.33 856 25.28 9 48.3 58 1.3 34.3 0
20:41 1027 30.33 856 25.28 9 48.3 59 1.4 34.5 0
20:42 1027 30.33 856 25.28 9 48.2 59 1.4 34.5 0
20:43 1027 30.33 856 25.28 8.9 48 59 1.3 34.3 0
20:44 1027 30.33 856 25.28 8.9 48 59 1.3 34.3 0
20:45 1027 30.33 856 25.28 9 48.1 58 1.3 34.3 0
20:46 1027 30.33 856 25.28 9 48.2 59 1.3 34.4 0
20:47 1027 30.33 856 25.28 9 48.2 59 1.4 34.4 0
20:48 1027 30.33 856 25.28 8.9 48.1 59 1.3 34.3 0
20:49 1027 30.33 856 25.28 8.9 48 59 1.2 34.2 0
20:50 1027 30.33 856 25.28 8.8 47.9 59 1.3 34.4 0
20:51 1027 30.33 856 25.28 8.8 47.9 59 1.4 34.4 0
20:52 1027 30.33 856 25.28 8.7 47.7 60 1.4 34.5 0
20:53 1027 30.33 856 25.28 8.7 47.6 60 1.4 34.5 0
20:54 1027 30.33 856 25.28 8.5 47.4 60 1.3 34.4 0
20:55 1027 30.33 856 25.28 8.5 47.2 60 1.2 34.2 0
20:56 1027 30.33 856 25.28 8.5 47.3 60 1.3 34.3 0
20:57 1027 30.33 856 25.28 8.5 47.3 61 1.3 34.4 0
20:58 1027 30.33 856 25.28 8.5 47.3 60 1.2 34.2 0
20:59 1027 30.33 856 25.28 8.5 47.3 60 1.2 34.1 0
21:00 1027 30.33 856 25.28 8.6 47.5 59 1.2 34.1 0
21:01 1027 30.33 856 25.28 8.6 47.6 60 1.3 34.3 0
21:02 1027 30.33 856 25.28 8.6 47.6 60 1.3 34.3 0
21:03 1027 30.33 856 25.28 8.6 47.5 60 1.2 34.2 0
21:04 1027 30.33 856 25.28 8.6 47.5 59 1.2 34.2 0
21:05 1027 30.33 856 25.28 8.6 47.6 60 1.3 34.3 0
21:06 1027 30.33 856 25.28 8.5 47.4 60 1.3 34.4 0
21:07 1027 30.33 856 25.28 8.5 47.3 60 1.3 34.3 0
21:08 1027 30.33 856 25.28 8.5 47.2 60 1.2 34.1 0
21:09 1027 30.33 856 25.28 8.5 47.2 60 1.2 34.1 0
21:10 1027 30.33 856 25.28 8.5 47.3 60 1.3 34.3 0
21:11 1027 30.33 856 25.28 8.5 47.4 60 1.2 34.2 0
21:12 1027 30.33 856 25.28 8.5 47.4 60 1.2 34.1 0
21:13 1027 30.33 856 25.28 8.5 47.4 60 1.3 34.4 0
21:14 1027 30.33 856 25.28 8.4 47.2 61 1.3 34.3 0
21:15 1027 30.33 856 25.28 8.4 47.2 60 1.2 34.2 0
21:16 1027 30.33 856 25.28 8.4 47.1 61 1.3 34.3 0
21:17 1027 30.33 856 25.28 8.4 47.1 61 1.3 34.3 0
21:18 1027 30.33 856 25.28 8.3 47 61 1.2 34.1 0
21:19 1027 30.33 856 25.28 8.3 46.9 62 1.4 34.4 0
21:20 1027 30.33 856 25.28 8.1 46.6 62 1.2 34.2 0
21:21 1027 30.33 856 25.28 8.1 46.6 62 1.3 34.4 0
21:22 1027 30.33 856 25.28 8.1 46.6 62 1.2 34.2 0
21:23 1027 30.33 856 25.28 8.1 46.6 62 1.3 34.3 0
21:24 1027 30.33 856 25.28 8.1 46.6 62 1.3 34.4 0
21:25 1027 30.33 856 25.28 8.1 46.5 62 1.2 34.2 0
21:26 1027 30.33 856 25.28 8 46.5 62 1.2 34.2 0
21:27 1027 30.33 856 25.28 8.1 46.5 62 1.2 34.2 0
21:28 1027 30.33 856 25.28 8 46.5 62 1.2 34.2 0
21:29 1027 30.33 856 25.28 8.1 46.5 62 1.2 34.1 0
21:30 1027 30.33 856 25.28 8.1 46.6 62 1.2 34.2 0
21:31 1027 30.33 856 25.28 8.1 46.5 62 1.2 34.1 0
21:32 1027 30.33 857 25.31 8.1 46.5 62 1.3 34.3 0
21:33 1027 30.33 857 25.31 8 46.5 62 1.2 34.2 0
21:34 1027 30.33 857 25.31 8 46.5 61 1.1 33.9 0
21:35 1027 30.33 857 25.31 8.1 46.6 61 1.1 33.9 0
21:36 1027 30.33 856 25.28 8.2 46.7 61 1.2 34.1 0
21:37 1027 30.33 856 25.28 8.2 46.7 61 1.1 34 0
21:38 1027 30.33 856 25.28 8.2 46.8 61 1.1 34 0
21:39 1027 30.33 856 25.28 8.3 46.9 60 1.1 33.9 0
21:40 1027 30.33 856 25.28 8.3 46.9 60 1.1 33.9 0
21:41 1027 30.33 856 25.28 8.3 46.9 61 1.2 34.1 0
21:42 1027 30.33 856 25.28 8.3 46.9 61 1.1 34 0
21:43 1027 30.33 856 25.28 8.3 46.9 61 1.2 34.1 0
21:44 1027 30.33 856 25.28 8.3 46.9 60 1.1 33.9 0
21:45 1027 30.33 856 25.28 8.2 46.8 61 1.1 34 0
21:46 1027 30.33 856 25.28 8.2 46.8 61 1.2 34.2 0
21:47 1027 30.33 856 25.28 8.1 46.7 62 1.2 34.2 0
21:48 1027 30.33 856 25.28 8.1 46.5 61 1.1 34 0
21:49 1027 30.33 856 25.28 8 46.5 61 1 33.9 0
21:50 1027 30.33 856 25.28 8.1 46.7 61 1 33.8 0
21:51 1027 30.33 856 25.28 8.2 46.8 60 1 33.8 0
21:52 1027 30.33 856 25.28 8.3 46.9 60 1 33.7 0
21:53 1027 30.33 856 25.28 8.3 46.9 60 1 33.9 0
21:54 1027 30.33 856 25.28 8.3 46.9 60 1 33.8 0
21:55 1027 30.33 856 25.28 8.3 46.9 60 1 33.8 0
21:56 1027 30.33 857 25.31 8.4 47 59 0.9 33.7 0
21:57 1027 30.33 856 25.28 8.4 47.1 59 1 33.8 0
21:58 1027 30.33 856 25.28 8.4 47.1 59 0.9 33.6 0
21:59 1027 30.33 856 25.28 8.4 47.1 59 1 33.7 0
22:00 1027 30.33 856 25.28 8.4 47.1 59 0.9 33.6 0
22:01 1027 30.33 856 25.28 8.4 47.1 59 0.9 33.6 0
22:02 1027 30.33 856 25.28 8.4 47.1 59 1 33.8 0
22:03 1027 30.33 856 25.28 8.4 47 59 0.9 33.7 0
22:04 1027 30.33 856 25.28 8.4 47.1 59 0.9 33.7 0
22:05 1027 30.33 856 25.28 8.4 47 60 1 33.8 0
22:06 1027 30.33 856 25.28 8.3 47 60 1.1 33.9 0
22:07 1027 30.33 856 25.28 8.2 46.8 60 0.9 33.7 0
22:08 1027 30.33 856 25.28 8.2 46.8 60 0.9 33.7 0
22:09 1027 30.33 856 25.28 8.2 46.8 60 1 33.8 0
22:10 1027 30.33 856 25.28 8.2 46.8 60 1 33.9 0
22:11 1027 30.33 856 25.28 8.2 46.7 60 1 33.7 0
22:12 1027 30.33 856 25.28 8.2 46.7 60 0.9 33.6 0
22:13 1027 30.33 856 25.28 8.2 46.7 61 1 33.8 0
22:14 1027 30.33 856 25.28 8.1 46.6 61 1 33.8 0
22:15 1027 30.33 856 25.28 8 46.5 61 1 33.8 0
22:16 1027 30.33 856 25.28 8 46.5 61 0.9 33.6 0
22:17 1027 30.33 856 25.28 8 46.4 61 1 33.8 0
22:18 1027 30.33 856 25.28 7.9 46.3 61 0.9 33.7 0
22:19 1027 30.33 856 25.28 7.9 46.2 61 0.9 33.6 0
22:20 1027 30.33 856 25.28 7.9 46.2 62 1 33.8 0
22:21 1027 30.33 856 25.28 7.9 46.1 61 0.9 33.5 0
22:22 1027 30.33 856 25.28 8 46.4 61 0.9 33.7 0
22:23 1027 30.33 856 25.28 8 46.4 61 0.9 33.6 0
22:24 1027 30.33 856 25.28 8.1 46.5 61 0.9 33.7 0
22:25 1027 30.33 856 25.28 8.1 46.5 60 0.9 33.6 0
22:26 1027 30.33 856 25.28 8.1 46.6 60 0.9 33.6 0
22:27 1027 30.33 856 25.28 8.1 46.6 60 0.9 33.6 0
22:28 1027 30.33 856 25.28 8.2 46.7 60 0.9 33.5 0
22:29 1027 30.33 856 25.28 8.2 46.8 60 1 33.8 0
22:30 1027 30.33 856 25.28 8.1 46.6 61 1 33.9 0
22:31 1027 30.33 856 25.28 8.1 46.5 61 1 33.8 0
22:32 1027 30.33 856 25.28 8 46.4 61 0.9 33.6 0
22:33 1027 30.33 856 25.28 8.1 46.5 61 1 33.7 0
22:34 1027 30.33 856 25.28 8 46.4 61 0.9 33.6 0
22:35 1027 30.33 856 25.28 8.1 46.5 61 1 33.8 0
22:36 1027 30.33 856 25.28 8 46.5 61 1 33.8 0
22:37 1027 30.33 856 25.28 8 46.4 61 1 33.8 0
22:38 1027 30.33 856 25.28 8 46.3 61 0.9 33.6 0
22:39 1027 30.33 856 25.28 8 46.4 61 0.9 33.7 0
22:40 1027 30.33 856 25.28 8 46.4 61 1 33.9 0
22:41 1027 30.33 856 25.28 8 46.4 61 1 33.8 0
22:42 1027 30.33 856 25.28 8 46.4 61 1 33.8 0
22:43 1027 30.33 856 25.28 8 46.4 61 1.1 33.9 0
22:44 1027 30.33 856 25.28 8 46.4 62 1.1 34 0
22:45 1027 30.33 856 25.28 7.9 46.2 62 1.1 34 0
22:46 1027 30.33 856 25.28 7.9 46.2 62 1.2 34.1 0
22:47 1027 30.33 856 25.28 7.9 46.1 63 1.2 34.1 0
22:48 1027 30.33 856 25.28 7.8 46.1 62 1.1 33.9 0
22:49 1027 30.33 856 25.28 7.9 46.1 62 1.1 34 0
22:50 1027 30.33 856 25.28 7.9 46.1 62 1.2 34.1 0
22:51 1027 30.33 856 25.28 7.9 46.1 62 1.1 34.1 0
22:52 1027 30.33 856 25.28 7.8 46.1 63 1.2 34.2 0
22:53 1027 30.33 856 25.28 7.8 46 63 1.2 34.1 0
22:54 1027 30.33 856 25.28 7.8 46 63 1.2 34.1 0
22:55 1027 30.33 856 25.28 7.8 46 63 1.3 34.3 0
22:56 1027 30.33 856 25.28 7.8 46 64 1.3 34.4 0
22:57 1027 30.33 857 25.31 7.7 45.9 64 1.3 34.4 0
22:58 1027 30.33 857 25.31 7.7 45.8 64 1.3 34.4 0
22:59 1027 30.33 856 25.28 7.6 45.7 64 1.3 34.3 0
23:00 1027 30.33 857 25.31 7.6 45.7 64 1.3 34.4 0
23:01 1027 30.33 857 25.31 7.6 45.7 64 1.3 34.4 0
23:02 1027 30.33 856 25.28 7.6 45.7 65 1.4 34.4 0
23:03 1027 30.33 857 25.31 7.6 45.7 65 1.4 34.5 0
23:04 1027 30.33 856 25.28 7.6 45.7 65 1.4 34.5 0
23:05 1027 30.33 857 25.31 7.6 45.7 65 1.5 34.6 0
23:06 1027 30.33 857 25.31 7.6 45.7 65 1.5 34.7 0
23:07 1027 30.33 856 25.28 7.6 45.6 65 1.4 34.6 0
23:08 1027 30.33 857 25.31 7.6 45.6 65 1.5 34.7 0
23:09 1027 30.33 857 25.31 7.5 45.5 66 1.5 34.7 0
23:10 1027 30.33 857 25.31 7.5 45.5 66 1.5 34.7 0
23:11 1027 30.33 857 25.31 7.5 45.5 66 1.5 34.8 0
23:12 1027 30.33 857 25.31 7.5 45.5 66 1.5 34.8 0
23:13 1027 30.33 857 25.31 7.5 45.6 66 1.6 34.9 0
23:14 1027 30.33 857 25.31 7.5 45.5 66 1.6 34.9 0
23:15 1027 30.33 857 25.31 7.5 45.4 66 1.6 34.9 0
23:16 1027 30.33 857 25.31 7.5 45.4 66 1.6 34.9 0
23:17 1027 30.33 857 25.31 7.5 45.5 67 1.7 35.1 0
23:18 1027 30.33 857 25.31 7.5 45.4 67 1.8 35.2 0
23:19 1027 30.33 857 25.31 7.4 45.3 67 1.7 35.1 0
23:20 1027 30.33 857 25.31 7.4 45.3 67 1.7 35 0
23:21 1027 30.33 857 25.31 7.4 45.4 67 1.7 35.1 0
23:22 1027 30.33 857 25.31 7.4 45.4 67 1.7 35.1 0
23:23 1027 30.33 857 25.31 7.4 45.4 67 1.7 35.1 0
23:24 1027 30.33 857 25.31 7.4 45.3 67 1.8 35.2 0
23:25 1027 30.33 857 25.31 7.4 45.3 67 1.8 35.2 0
23:26 1027 30.33 857 25.31 7.4 45.3 68 1.8 35.2 0
23:27 1027 30.33 857 25.31 7.4 45.2 68 1.8 35.3 0
23:28 1027 30.33 857 25.31 7.3 45.1 68 1.8 35.2 0
23:29 1027 30.33 857 25.31 7.3 45.2 68 1.8 35.2 0
23:30 1027 30.33 856 25.28 7.2 45 68 1.8 35.2 0
23:31 1027 30.33 856 25.28 7.2 45 68 1.8 35.2 0
23:32 1027 30.33 856 25.28 7.2 45 68 1.8 35.2 0
23:33 1027 30.33 857 25.31 7.2 45 68 1.8 35.2 0
23:34 1027 30.33 856 25.28 7.2 44.9 68 1.8 35.2 0
23:35 1027 30.33 857 25.31 7.1 44.9 68 1.7 35.1 0
23:36 1027 30.33 857 25.31 7.1 44.9 68 1.7 35.1 0
23:37 1027 30.33 857 25.31 7.2 45 68 1.7 35 0
23:38 1027 30.33 857 25.31 7.3 45.1 68 1.7 35.1 0
23:39 1027 30.33 857 25.31 7.3 45.1 68 1.7 35 0
23:40 1027 30.33 857 25.31 7.3 45.1 68 1.7 35.1 0
23:41 1027 30.33 856 25.28 7.3 45.1 68 1.7 35.1 0
23:42 1027 30.33 856 25.28 7.3 45.1 68 1.8 35.2 0
23:43 1027 30.33 856 25.28 7.3 45.1 68 1.8 35.3 0
23:44 1027 30.33 856 25.28 7.2 44.9 69 1.8 35.3 0
23:45 1027 30.33 856 25.28 7.1 44.9 69 1.8 35.2 0
23:46 1027 30.33 856 25.28 7.1 44.8 69 1.8 35.2 0
23:47 1027 30.33 856 25.28 7.1 44.8 69 1.8 35.2 0
23:48 1027 30.33 856 25.28 7.1 44.8 69 1.7 35.1 0
23:49 1027 30.33 856 25.28 7.1 44.8 69 1.7 35.1 0
23:50 1027 30.33 856 25.28 7.1 44.8 69 1.8 35.2 0
23:51 1027 30.33 856 25.28 7.1 44.8 69 1.8 35.2 0
23:52 1027 30.33 856 25.28 7.1 44.7 69 1.8 35.3 0
23:53 1027 30.33 856 25.28 7 44.7 69 1.8 35.3 0
23:54 1027 30.33 857 25.31 6.9 44.5 70 1.8 35.3 0
23:55 1027 30.33 856 25.28 6.9 44.4 70 1.8 35.2 0
23:56 1027 30.33 856 25.28 6.8 44.3 70 1.8 35.2 0
23:57 1027 30.33 857 25.31 6.8 44.2 70 1.8 35.2 0
23:58 1027 30.33 857 25.31 6.8 44.2 70 1.7 35.1 0
23:59 1027 30.33 857 25.31 6.8 44.2 70 1.8 35.2 0
24:00 1027 30.33 857 25.31 6.7 44.1 70 1.7 35.1 0